PWSweather.com
Personal Weather Stations
Station Observations
DL5ARK
SonnebergDE

SonnebergDE

Lat: 50.34904861, Lon: 11.18112087

Elevation: 1214

Station Type: Selfmade

http://www.sumbarg.de

High Low Average
Temperature 85.2°F29.6°C 61.8°F16.6°C 71.8°F22.1°C
Dew Point 70.2°F21.2°C 57.8°F14.3°C 63.3°F17.4°C
Winds 12.8 mph 20.6 kmh Calm Calm 4.0 mph S6.4 kmh S
Wind Gusts 12.9 mph20.8 kmh -- 4.0 mph6.4 kmh
Humidity 76% 44% 59%
Pressure 30.16 in1021.3 mb 30.05 in1017.6 mb -
Precipitation 0.02 in0.5 mm - -
Hour Temp Dew Point Humidity Winds Wind Gusts Pressure Precip Precip Rate Daily Precip Total
12:00 AM 64.6°F18.1°C 61.6°F16.4°C 71% 3.8 mph SE6.1 kmh SE 3.9 mph6.3 kmh 30.06 in1017.9 mb 0.00 in0.0 mm 0.00 in0.0 mm 0.00 in0.0 mm
12:03 AM 64.4°F18.0°C 61.6°F16.4°C 71% 5.4 mph NNW8.7 kmh NNW 5.5 mph8.9 kmh 30.05 in1017.6 mb 0.00 in0.0 mm 0.00 in0.0 mm 0.00 in0.0 mm
12:06 AM 64.6°F18.1°C 61.6°F16.4°C 71% 7.5 mph SE12.1 kmh SE 7.6 mph12.2 kmh 30.07 in1018.3 mb 0.00 in0.0 mm 0.00 in0.0 mm 0.00 in0.0 mm
12:09 AM 64.5°F18.1°C 61.8°F16.6°C 72% 7.1 mph SE11.4 kmh SE 7.2 mph11.6 kmh 30.06 in1017.9 mb 0.00 in0.0 mm 0.00 in0.0 mm 0.00 in0.0 mm
12:12 AM 64.5°F18.1°C 61.9°F16.6°C 72% 5.7 mph SE9.2 kmh SE 5.7 mph9.2 kmh 30.06 in1017.9 mb 0.00 in0.0 mm 0.00 in0.0 mm 0.00 in0.0 mm
12:15 AM 64.7°F18.2°C 61.6°F16.4°C 72% 7.4 mph NNW11.9 kmh NNW 7.4 mph11.9 kmh 30.06 in1017.9 mb 0.00 in0.0 mm 0.00 in0.0 mm 0.00 in0.0 mm
12:18 AM 64.6°F18.1°C 61.7°F16.5°C 72% 8.5 mph SE13.7 kmh SE 8.5 mph13.7 kmh 30.06 in1017.9 mb 0.00 in0.0 mm 0.00 in0.0 mm 0.00 in0.0 mm
12:21 AM 64.6°F18.1°C 61.6°F16.4°C 72% 4.4 mph SE7.1 kmh SE 4.4 mph7.1 kmh 30.06 in1017.9 mb 0.00 in0.0 mm 0.00 in0.0 mm 0.00 in0.0 mm
12:24 AM 64.4°F18.0°C 62.0°F16.7°C 72% 2.0 mph ENE3.2 kmh ENE 2.0 mph3.2 kmh 30.05 in1017.6 mb 0.00 in0.0 mm 0.00 in0.0 mm 0.00 in0.0 mm
12:27 AM 64.1°F17.8°C 62.1°F16.7°C 73% 6.4 mph SE10.3 kmh SE 6.4 mph10.3 kmh 30.05 in1017.6 mb 0.00 in0.0 mm 0.00 in0.0 mm 0.00 in0.0 mm
12:30 AM 63.6°F17.6°C 62.5°F16.9°C 75% 8.8 mph SE14.2 kmh SE 8.8 mph14.2 kmh 30.06 in1017.9 mb 0.00 in0.0 mm 0.00 in0.0 mm 0.00 in0.0 mm
12:33 AM 63.4°F17.4°C 62.6°F17.0°C 75% 4.4 mph ESE7.1 kmh ESE 4.4 mph7.1 kmh 30.06 in1017.9 mb 0.00 in0.0 mm 0.00 in0.0 mm 0.00 in0.0 mm
12:36 AM 63.2°F17.3°C 62.5°F16.9°C 76% 5.5 mph ESE8.9 kmh ESE 5.6 mph9.0 kmh 30.06 in1017.9 mb 0.00 in0.0 mm 0.00 in0.0 mm 0.00 in0.0 mm
12:39 AM 62.8°F17.1°C 62.0°F16.7°C 75% 12.5 mph NNW20.1 kmh NNW 12.6 mph20.3 kmh 30.05 in1017.6 mb 0.00 in0.0 mm 0.00 in0.0 mm 0.00 in0.0 mm
12:42 AM 62.9°F17.2°C 62.4°F16.9°C 76% 2.8 mph SE4.5 kmh SE 2.8 mph4.5 kmh 30.05 in1017.6 mb 0.00 in0.0 mm 0.00 in0.0 mm 0.00 in0.0 mm
12:45 AM 62.7°F17.1°C 62.2°F16.8°C 76% 11.1 mph NNW17.9 kmh NNW 11.2 mph18.0 kmh 30.06 in1017.9 mb 0.00 in0.0 mm 0.00 in0.0 mm 0.00 in0.0 mm
12:48 AM 62.8°F17.1°C 62.1°F16.7°C 76% 7.2 mph ENE11.6 kmh ENE 7.2 mph11.6 kmh 30.05 in1017.6 mb 0.00 in0.0 mm 0.00 in0.0 mm 0.00 in0.0 mm
12:51 AM 62.7°F17.1°C 62.2°F16.8°C 76% 5.2 mph ESE8.4 kmh ESE 5.3 mph8.5 kmh 30.05 in1017.6 mb 0.00 in0.0 mm 0.00 in0.0 mm 0.00 in0.0 mm
12:54 AM 62.8°F17.1°C 62.4°F16.9°C 76% 1.6 mph NNW2.6 kmh NNW 1.6 mph2.6 kmh 30.05 in1017.6 mb 0.00 in0.0 mm 0.00 in0.0 mm 0.00 in0.0 mm
12:57 AM 63.2°F17.3°C 61.7°F16.5°C 76% 7.3 mph SE11.7 kmh SE 7.3 mph11.7 kmh 30.05 in1017.6 mb 0.00 in0.0 mm 0.00 in0.0 mm 0.00 in0.0 mm
01:00 AM 63.1°F17.3°C 62.0°F16.7°C 76% 5.3 mph ESE8.5 kmh ESE 5.3 mph8.5 kmh 30.05 in1017.6 mb 0.00 in0.0 mm 0.00 in0.0 mm 0.00 in0.0 mm
01:03 AM 63.1°F17.3°C 61.9°F16.6°C 76% 1.6 mph ESE2.6 kmh ESE 1.6 mph2.6 kmh 30.05 in1017.6 mb 0.00 in0.0 mm 0.00 in0.0 mm 0.00 in0.0 mm
01:06 AM 62.8°F17.1°C 62.2°F16.8°C 76% 9.1 mph NNW14.6 kmh NNW 9.2 mph14.8 kmh 30.05 in1017.6 mb 0.00 in0.0 mm 0.00 in0.0 mm 0.00 in0.0 mm
01:09 AM 63.2°F17.3°C 61.6°F16.4°C 75% 7.7 mph SE12.4 kmh SE 7.8 mph12.6 kmh 30.05 in1017.6 mb 0.00 in0.0 mm 0.00 in0.0 mm 0.02 in0.5 mm
01:12 AM 63.1°F17.3°C 61.8°F16.6°C 75% 6.4 mph SE10.3 kmh SE 6.4 mph10.3 kmh 30.05 in1017.6 mb 0.00 in0.0 mm 0.00 in0.0 mm 0.02 in0.5 mm
01:15 AM 63.3°F17.4°C 61.4°F16.3°C 75% 9.2 mph SE14.8 kmh SE 9.3 mph15.0 kmh 30.05 in1017.6 mb 0.00 in0.0 mm 0.00 in0.0 mm 0.02 in0.5 mm
01:18 AM 63.5°F17.5°C 60.9°F16.1°C 74% 8.5 mph NNW13.7 kmh NNW 8.6 mph13.8 kmh 30.05 in1017.6 mb 0.00 in0.0 mm 0.00 in0.0 mm 0.02 in0.5 mm
01:21 AM 63.7°F17.6°C 61.2°F16.2°C 73% 10.7 mph ESE17.2 kmh ESE 10.8 mph17.4 kmh 30.05 in1017.6 mb 0.00 in0.0 mm 0.00 in0.0 mm 0.02 in0.5 mm
01:24 AM 63.6°F17.6°C 61.2°F16.2°C 73% 5.9 mph ESE9.5 kmh ESE 6.0 mph9.7 kmh 30.05 in1017.6 mb 0.00 in0.0 mm 0.00 in0.0 mm 0.02 in0.5 mm
01:27 AM 63.8°F17.7°C 61.1°F16.2°C 73% 12.8 mph ESE20.6 kmh ESE 12.8 mph20.6 kmh 30.05 in1017.6 mb 0.00 in0.0 mm 0.00 in0.0 mm 0.02 in0.5 mm
01:30 AM 63.7°F17.6°C 61.1°F16.2°C 73% 3.2 mph SE5.1 kmh SE 3.3 mph5.3 kmh 30.05 in1017.6 mb 0.00 in0.0 mm 0.00 in0.0 mm 0.02 in0.5 mm
01:33 AM 63.5°F17.5°C 60.8°F16.0°C 73% 9.1 mph SE14.6 kmh SE 9.2 mph14.8 kmh 30.05 in1017.6 mb 0.00 in0.0 mm 0.00 in0.0 mm 0.02 in0.5 mm
01:36 AM 63.3°F17.4°C 61.1°F16.2°C 73% 6.1 mph SE9.8 kmh SE 6.1 mph9.8 kmh 30.05 in1017.6 mb 0.00 in0.0 mm 0.00 in0.0 mm 0.02 in0.5 mm
01:39 AM 63.6°F17.6°C 61.1°F16.2°C 74% 5.7 mph SE9.2 kmh SE 5.7 mph9.2 kmh 30.05 in1017.6 mb 0.00 in0.0 mm 0.00 in0.0 mm 0.02 in0.5 mm
01:42 AM 63.7°F17.6°C 60.9°F16.1°C 73% 9.3 mph ESE15.0 kmh ESE 9.3 mph15.0 kmh 30.05 in1017.6 mb 0.00 in0.0 mm 0.00 in0.0 mm 0.02 in0.5 mm
01:45 AM 64.2°F17.9°C 60.3°F15.7°C 72% 10.7 mph ESE17.2 kmh ESE 10.8 mph17.4 kmh 30.05 in1017.6 mb 0.00 in0.0 mm 0.00 in0.0 mm 0.02 in0.5 mm
01:48 AM 64.0°F17.8°C 60.8°F16.0°C 72% 9.1 mph ESE14.6 kmh ESE 9.1 mph14.6 kmh 30.05 in1017.6 mb 0.00 in0.0 mm 0.00 in0.0 mm 0.02 in0.5 mm
01:51 AM 63.7°F17.6°C 60.8°F16.0°C 72% 8.5 mph ESE13.7 kmh ESE 8.6 mph13.8 kmh 30.05 in1017.6 mb 0.00 in0.0 mm 0.00 in0.0 mm 0.02 in0.5 mm
01:54 AM 64.0°F17.8°C 60.6°F15.9°C 71% 6.1 mph SE9.8 kmh SE 6.1 mph9.8 kmh 30.05 in1017.6 mb 0.00 in0.0 mm 0.00 in0.0 mm 0.02 in0.5 mm
01:57 AM 64.2°F17.9°C 60.5°F15.8°C 71% 8.1 mph SE13.0 kmh SE 8.2 mph13.2 kmh 30.05 in1017.6 mb 0.00 in0.0 mm 0.00 in0.0 mm 0.02 in0.5 mm
02:00 AM 64.3°F17.9°C 60.6°F15.9°C 72% 7.7 mph SE12.4 kmh SE 7.7 mph12.4 kmh 30.05 in1017.6 mb 0.00 in0.0 mm 0.00 in0.0 mm 0.02 in0.5 mm
02:03 AM 63.7°F17.6°C 61.0°F16.1°C 72% 5.2 mph NNW8.4 kmh NNW 5.3 mph8.5 kmh 30.05 in1017.6 mb 0.00 in0.0 mm 0.00 in0.0 mm 0.02 in0.5 mm
02:06 AM 64.0°F17.8°C 60.9°F16.1°C 72% 8.9 mph ESE14.3 kmh ESE 8.9 mph14.3 kmh 30.05 in1017.6 mb 0.00 in0.0 mm 0.00 in0.0 mm 0.02 in0.5 mm
02:09 AM 64.1°F17.8°C 60.9°F16.1°C 72% 3.1 mph ESE5.0 kmh ESE 3.1 mph5.0 kmh 30.05 in1017.6 mb 0.00 in0.0 mm 0.00 in0.0 mm 0.02 in0.5 mm
02:12 AM 64.2°F17.9°C 61.1°F16.2°C 72% 4.8 mph SE7.7 kmh SE 4.8 mph7.7 kmh 30.05 in1017.6 mb 0.00 in0.0 mm 0.00 in0.0 mm 0.02 in0.5 mm
02:15 AM 64.0°F17.8°C 60.8°F16.0°C 72% 6.4 mph NNW10.3 kmh NNW 6.4 mph10.3 kmh 30.05 in1017.6 mb 0.00 in0.0 mm 0.00 in0.0 mm 0.02 in0.5 mm
02:21 AM 64.6°F18.1°C 60.5°F15.8°C 71% 10.1 mph NNW16.3 kmh NNW 10.2 mph16.4 kmh 30.05 in1017.6 mb 0.00 in0.0 mm 0.00 in0.0 mm 0.02 in0.5 mm
02:24 AM 64.4°F18.0°C 60.7°F15.9°C 71% 3.1 mph ESE5.0 kmh ESE 3.2 mph5.1 kmh 30.05 in1017.6 mb 0.00 in0.0 mm 0.00 in0.0 mm 0.02 in0.5 mm
02:27 AM 64.2°F17.9°C 60.9°F16.1°C 71% 3.2 mph NNW5.1 kmh NNW 3.3 mph5.3 kmh 30.05 in1017.6 mb 0.00 in0.0 mm 0.00 in0.0 mm 0.02 in0.5 mm
02:30 AM 64.2°F17.9°C 60.8°F16.0°C 71% 4.5 mph SE7.2 kmh SE 4.5 mph7.2 kmh 30.05 in1017.6 mb 0.00 in0.0 mm 0.00 in0.0 mm 0.02 in0.5 mm
02:33 AM 64.3°F17.9°C 60.1°F15.6°C 70% 7.3 mph NNW11.7 kmh NNW 7.3 mph11.7 kmh 30.05 in1017.6 mb 0.00 in0.0 mm 0.00 in0.0 mm 0.02 in0.5 mm
02:36 AM 64.5°F18.1°C 60.1°F15.6°C 70% 3.6 mph SE5.8 kmh SE 3.7 mph6.0 kmh 30.05 in1017.6 mb 0.00 in0.0 mm 0.00 in0.0 mm 0.02 in0.5 mm
02:39 AM 64.3°F17.9°C 60.6°F15.9°C 71% 4.4 mph ESE7.1 kmh ESE 4.4 mph7.1 kmh 30.05 in1017.6 mb 0.00 in0.0 mm 0.00 in0.0 mm 0.02 in0.5 mm
02:42 AM 64.6°F18.1°C 59.9°F15.5°C 70% 7.3 mph ESE11.7 kmh ESE 7.3 mph11.7 kmh 30.05 in1017.6 mb 0.00 in0.0 mm 0.00 in0.0 mm 0.02 in0.5 mm
02:45 AM 64.3°F17.9°C 59.8°F15.4°C 70% 5.2 mph ESE8.4 kmh ESE 5.2 mph8.4 kmh 30.05 in1017.6 mb 0.00 in0.0 mm 0.00 in0.0 mm 0.02 in0.5 mm
02:48 AM 64.1°F17.8°C 60.1°F15.6°C 70% 3.6 mph E5.8 kmh E 3.7 mph6.0 kmh 30.05 in1017.6 mb 0.00 in0.0 mm 0.00 in0.0 mm 0.02 in0.5 mm
02:51 AM 64.4°F18.0°C 60.3°F15.7°C 70% 4.0 mph SE6.4 kmh SE 4.0 mph6.4 kmh 30.05 in1017.6 mb 0.00 in0.0 mm 0.00 in0.0 mm 0.02 in0.5 mm
02:54 AM 64.3°F17.9°C 59.9°F15.5°C 70% 5.0 mph ESE8.0 kmh ESE 5.1 mph8.2 kmh 30.05 in1017.6 mb 0.00 in0.0 mm 0.00 in0.0 mm 0.02 in0.5 mm
02:57 AM 64.2°F17.9°C 60.2°F15.7°C 70% 4.0 mph NNW6.4 kmh NNW 4.1 mph6.6 kmh 30.05 in1017.6 mb 0.00 in0.0 mm 0.00 in0.0 mm 0.02 in0.5 mm
03:00 AM 64.1°F17.8°C 60.5°F15.8°C 71% 1.9 mph NNW3.1 kmh NNW 2.0 mph3.2 kmh 30.05 in1017.6 mb 0.00 in0.0 mm 0.00 in0.0 mm 0.02 in0.5 mm
03:03 AM 64.0°F17.8°C 60.1°F15.6°C 70% 3.6 mph ESE5.8 kmh ESE 3.6 mph5.8 kmh 30.05 in1017.6 mb 0.00 in0.0 mm 0.00 in0.0 mm 0.02 in0.5 mm
03:06 AM 63.8°F17.7°C 60.4°F15.8°C 71% 2.0 mph ESE3.2 kmh ESE 2.0 mph3.2 kmh 30.05 in1017.6 mb 0.00 in0.0 mm 0.00 in0.0 mm 0.02 in0.5 mm
03:09 AM 64.0°F17.8°C 60.1°F15.6°C 70% 1.6 mph E2.6 kmh E 1.6 mph2.6 kmh 30.05 in1017.6 mb 0.00 in0.0 mm 0.00 in0.0 mm 0.02 in0.5 mm
03:12 AM 63.8°F17.7°C 60.5°F15.8°C 71% 3.2 mph ENE5.1 kmh ENE 3.3 mph5.3 kmh 30.05 in1017.6 mb 0.00 in0.0 mm 0.00 in0.0 mm 0.02 in0.5 mm
03:15 AM 64.1°F17.8°C 60.0°F15.6°C 70% 1.6 mph NNW2.6 kmh NNW 1.6 mph2.6 kmh 30.05 in1017.6 mb 0.00 in0.0 mm 0.00 in0.0 mm 0.02 in0.5 mm
03:18 AM 63.8°F17.7°C 60.1°F15.6°C 70% 3.6 mph E5.8 kmh E 3.7 mph6.0 kmh 30.05 in1017.6 mb 0.00 in0.0 mm 0.00 in0.0 mm 0.02 in0.5 mm
03:21 AM 64.0°F17.8°C 60.3°F15.7°C 71% 2.0 mph E3.2 kmh E 2.0 mph3.2 kmh 30.05 in1017.6 mb 0.00 in0.0 mm 0.00 in0.0 mm 0.02 in0.5 mm
03:24 AM 63.6°F17.6°C 60.3°F15.7°C 71% 1.2 mph NNW1.9 kmh NNW 1.2 mph1.9 kmh 30.05 in1017.6 mb 0.00 in0.0 mm 0.00 in0.0 mm 0.02 in0.5 mm
03:27 AM 63.5°F17.5°C 60.3°F15.7°C 71% 4.0 mph E6.4 kmh E 4.0 mph6.4 kmh 30.05 in1017.6 mb 0.00 in0.0 mm 0.00 in0.0 mm 0.02 in0.5 mm
03:30 AM 63.6°F17.6°C 60.1°F15.6°C 71% 2.4 mph ENE3.9 kmh ENE 2.4 mph3.9 kmh 30.05 in1017.6 mb 0.00 in0.0 mm 0.00 in0.0 mm 0.02 in0.5 mm
03:33 AM 63.6°F17.6°C 60.4°F15.8°C 71% 3.6 mph ESE5.8 kmh ESE 3.7 mph6.0 kmh 30.05 in1017.6 mb 0.00 in0.0 mm 0.00 in0.0 mm 0.02 in0.5 mm
03:36 AM 63.5°F17.5°C 60.3°F15.7°C 71% 4.4 mph NNW7.1 kmh NNW 4.4 mph7.1 kmh 30.05 in1017.6 mb 0.00 in0.0 mm 0.00 in0.0 mm 0.02 in0.5 mm
03:39 AM 63.4°F17.4°C 60.4°F15.8°C 71% 0.8 mph ENE1.3 kmh ENE 0.8 mph1.3 kmh 30.05 in1017.6 mb 0.00 in0.0 mm 0.00 in0.0 mm 0.02 in0.5 mm
03:42 AM 63.4°F17.4°C 60.2°F15.7°C 71% 4.3 mph NNW6.9 kmh NNW 4.4 mph7.1 kmh 30.05 in1017.6 mb 0.00 in0.0 mm 0.00 in0.0 mm 0.02 in0.5 mm
03:45 AM 63.5°F17.5°C 60.4°F15.8°C 71% 6.3 mph NNW10.1 kmh NNW 6.3 mph10.1 kmh 30.06 in1017.9 mb 0.00 in0.0 mm 0.00 in0.0 mm 0.02 in0.5 mm
03:48 AM 62.9°F17.2°C 60.2°F15.7°C 71% 0.4 mph NE0.6 kmh NE 0.4 mph0.6 kmh 30.05 in1017.6 mb 0.00 in0.0 mm 0.00 in0.0 mm 0.02 in0.5 mm
03:51 AM 62.9°F17.2°C 60.6°F15.9°C 72% 0.8 mph ENE1.3 kmh ENE 0.8 mph1.3 kmh 30.05 in1017.6 mb 0.00 in0.0 mm 0.00 in0.0 mm 0.02 in0.5 mm
03:54 AM 62.9°F17.2°C 60.4°F15.8°C 72% 1.1 mph SE1.8 kmh SE 1.2 mph1.9 kmh 30.05 in1017.6 mb 0.00 in0.0 mm 0.00 in0.0 mm 0.02 in0.5 mm
03:57 AM 62.8°F17.1°C 60.5°F15.8°C 72% 4.0 mph SE6.4 kmh SE 4.1 mph6.6 kmh 30.05 in1017.6 mb 0.00 in0.0 mm 0.00 in0.0 mm 0.02 in0.5 mm
04:00 AM 62.9°F17.2°C 60.5°F15.8°C 72% 0.4 mph E0.6 kmh E 0.4 mph0.6 kmh 30.06 in1017.9 mb 0.00 in0.0 mm 0.00 in0.0 mm 0.02 in0.5 mm
04:03 AM 62.7°F17.1°C 60.3°F15.7°C 72% 1.6 mph NNW2.6 kmh NNW 1.6 mph2.6 kmh 30.05 in1017.6 mb 0.00 in0.0 mm 0.00 in0.0 mm 0.02 in0.5 mm
04:06 AM 62.8°F17.1°C 60.1°F15.6°C 71% 1.2 mph E1.9 kmh E 1.2 mph1.9 kmh 30.05 in1017.6 mb 0.00 in0.0 mm 0.00 in0.0 mm 0.02 in0.5 mm
04:09 AM 62.8°F17.1°C 60.5°F15.8°C 72% 2.4 mph ENE3.9 kmh ENE 2.4 mph3.9 kmh 30.05 in1017.6 mb 0.00 in0.0 mm 0.00 in0.0 mm 0.02 in0.5 mm
04:12 AM 63.1°F17.3°C 60.0°F15.6°C 72% 1.6 mph ENE2.6 kmh ENE 1.6 mph2.6 kmh 30.05 in1017.6 mb 0.00 in0.0 mm 0.00 in0.0 mm 0.02 in0.5 mm
04:15 AM 62.9°F17.2°C 60.0°F15.6°C 71% 0.8 mph E1.3 kmh E 0.8 mph1.3 kmh 30.06 in1017.9 mb 0.00 in0.0 mm 0.00 in0.0 mm 0.02 in0.5 mm
04:18 AM 62.8°F17.1°C 59.8°F15.4°C 72% 5.5 mph ENE8.9 kmh ENE 5.5 mph8.9 kmh 30.06 in1017.9 mb 0.00 in0.0 mm 0.00 in0.0 mm 0.02 in0.5 mm
04:21 AM 63.1°F17.3°C 59.7°F15.4°C 71% 2.4 mph E3.9 kmh E 2.4 mph3.9 kmh 30.06 in1017.9 mb 0.00 in0.0 mm 0.00 in0.0 mm 0.02 in0.5 mm
04:24 AM 62.9°F17.2°C 59.9°F15.5°C 71% 1.5 mph E2.4 kmh E 1.6 mph2.6 kmh 30.06 in1017.9 mb 0.00 in0.0 mm 0.00 in0.0 mm 0.02 in0.5 mm
04:27 AM 62.7°F17.1°C 59.7°F15.4°C 71% 2.7 mph E4.3 kmh E 2.7 mph4.3 kmh 30.06 in1017.9 mb 0.00 in0.0 mm 0.00 in0.0 mm 0.02 in0.5 mm
04:30 AM 62.5°F16.9°C 59.9°F15.5°C 71% 4.8 mph NNW7.7 kmh NNW 4.8 mph7.7 kmh 30.06 in1017.9 mb 0.00 in0.0 mm 0.00 in0.0 mm 0.02 in0.5 mm
04:33 AM 62.5°F16.9°C 59.6°F15.3°C 71% 0.4 mph NNW0.6 kmh NNW 0.4 mph0.6 kmh 30.06 in1017.9 mb 0.00 in0.0 mm 0.00 in0.0 mm 0.02 in0.5 mm
04:36 AM 62.4°F16.9°C 59.9°F15.5°C 71% 0.4 mph ENE0.6 kmh ENE 0.4 mph0.6 kmh 30.07 in1018.3 mb 0.00 in0.0 mm 0.00 in0.0 mm 0.02 in0.5 mm
04:39 AM 62.5°F16.9°C 59.6°F15.3°C 71% 1.6 mph E2.6 kmh E 1.6 mph2.6 kmh 30.07 in1018.3 mb 0.00 in0.0 mm 0.00 in0.0 mm 0.02 in0.5 mm
04:45 AM 62.9°F17.2°C 59.2°F15.1°C 70% 4.6 mph NNW7.4 kmh NNW 4.7 mph7.6 kmh 30.06 in1017.9 mb 0.00 in0.0 mm 0.00 in0.0 mm 0.02 in0.5 mm
04:48 AM 62.9°F17.2°C 59.4°F15.2°C 70% 3.6 mph ENE5.8 kmh ENE 3.7 mph6.0 kmh 30.07 in1018.3 mb 0.00 in0.0 mm 0.00 in0.0 mm 0.02 in0.5 mm
04:51 AM 63.2°F17.3°C 58.9°F14.9°C 69% 4.0 mph E6.4 kmh E 4.1 mph6.6 kmh 30.07 in1018.3 mb 0.00 in0.0 mm 0.00 in0.0 mm 0.02 in0.5 mm
04:54 AM 63.4°F17.4°C 59.0°F15.0°C 70% 3.8 mph ESE6.1 kmh ESE 3.8 mph6.1 kmh 30.07 in1018.3 mb 0.00 in0.0 mm 0.00 in0.0 mm 0.02 in0.5 mm
04:57 AM 63.4°F17.4°C 58.8°F14.9°C 69% 6.3 mph NNW10.1 kmh NNW 6.3 mph10.1 kmh 30.07 in1018.3 mb 0.00 in0.0 mm 0.00 in0.0 mm 0.02 in0.5 mm
05:00 AM 63.5°F17.5°C 59.0°F15.0°C 69% 2.0 mph ENE3.2 kmh ENE 2.0 mph3.2 kmh 30.06 in1017.9 mb 0.00 in0.0 mm 0.00 in0.0 mm 0.02 in0.5 mm
05:03 AM 63.5°F17.5°C 59.2°F15.1°C 69% 1.6 mph E2.6 kmh E 1.6 mph2.6 kmh 30.07 in1018.3 mb 0.00 in0.0 mm 0.00 in0.0 mm 0.02 in0.5 mm
05:06 AM 63.6°F17.6°C 59.1°F15.1°C 69% 2.8 mph E4.5 kmh E 2.8 mph4.5 kmh 30.07 in1018.3 mb 0.00 in0.0 mm 0.00 in0.0 mm 0.02 in0.5 mm
05:09 AM 64.0°F17.8°C 58.3°F14.6°C 67% 2.4 mph E3.9 kmh E 2.4 mph3.9 kmh 30.07 in1018.3 mb 0.00 in0.0 mm 0.00 in0.0 mm 0.02 in0.5 mm
05:12 AM 63.7°F17.6°C 58.9°F14.9°C 68% 5.4 mph NNW8.7 kmh NNW 5.4 mph8.7 kmh 30.07 in1018.3 mb 0.00 in0.0 mm 0.00 in0.0 mm 0.02 in0.5 mm
05:15 AM 64.4°F18.0°C 57.8°F14.3°C 66% 6.1 mph NNW9.8 kmh NNW 6.1 mph9.8 kmh 30.07 in1018.3 mb 0.00 in0.0 mm 0.00 in0.0 mm 0.02 in0.5 mm
05:18 AM 64.3°F17.9°C 58.6°F14.8°C 67% 5.7 mph ENE9.2 kmh ENE 5.7 mph9.2 kmh 30.07 in1018.3 mb 0.00 in0.0 mm 0.00 in0.0 mm 0.02 in0.5 mm
05:21 AM 64.6°F18.1°C 58.9°F14.9°C 67% 0.8 mph E1.3 kmh E 0.8 mph1.3 kmh 30.07 in1018.3 mb 0.00 in0.0 mm 0.00 in0.0 mm 0.02 in0.5 mm
05:24 AM 65.2°F18.4°C 58.8°F14.9°C 66% 10.5 mph SE16.9 kmh SE 10.6 mph17.1 kmh 30.07 in1018.3 mb 0.00 in0.0 mm 0.00 in0.0 mm 0.02 in0.5 mm
05:27 AM 65.8°F18.8°C 58.7°F14.8°C 66% 2.3 mph E3.7 kmh E 2.4 mph3.9 kmh 30.07 in1018.3 mb 0.00 in0.0 mm 0.00 in0.0 mm 0.02 in0.5 mm
05:30 AM 66.1°F18.9°C 59.5°F15.3°C 66% 4.6 mph NNW7.4 kmh NNW 4.7 mph7.6 kmh 30.07 in1018.3 mb 0.00 in0.0 mm 0.00 in0.0 mm 0.02 in0.5 mm
05:33 AM 67.1°F19.5°C 58.9°F14.9°C 64% 3.8 mph SE6.1 kmh SE 4.1 mph6.6 kmh 30.07 in1018.3 mb 0.00 in0.0 mm 0.00 in0.0 mm 0.02 in0.5 mm
05:36 AM 67.3°F19.6°C 59.0°F15.0°C 63% 8.1 mph ESE13.0 kmh ESE 8.1 mph13.0 kmh 30.07 in1018.3 mb 0.00 in0.0 mm 0.00 in0.0 mm 0.02 in0.5 mm
05:39 AM 67.7°F19.8°C 59.6°F15.3°C 64% 3.5 mph ESE5.6 kmh ESE 3.5 mph5.6 kmh 30.07 in1018.3 mb 0.00 in0.0 mm 0.00 in0.0 mm 0.02 in0.5 mm
05:42 AM 68.0°F20.0°C 59.8°F15.4°C 63% 5.2 mph SE8.4 kmh SE 5.2 mph8.4 kmh 30.07 in1018.3 mb 0.00 in0.0 mm 0.00 in0.0 mm 0.02 in0.5 mm
05:45 AM 68.2°F20.1°C 59.8°F15.4°C 62% 3.4 mph NNW5.5 kmh NNW 3.7 mph6.0 kmh 30.08 in1018.6 mb 0.00 in0.0 mm 0.00 in0.0 mm 0.02 in0.5 mm
05:51 AM 68.3°F20.2°C 60.0°F15.6°C 62% 2.0 mph E3.2 kmh E 2.0 mph3.2 kmh 30.08 in1018.6 mb 0.00 in0.0 mm 0.00 in0.0 mm 0.02 in0.5 mm
05:54 AM 68.2°F20.1°C 59.9°F15.5°C 61% 5.2 mph SE8.4 kmh SE 5.3 mph8.5 kmh 30.08 in1018.6 mb 0.00 in0.0 mm 0.00 in0.0 mm 0.02 in0.5 mm
05:57 AM 68.5°F20.3°C 59.1°F15.1°C 59% 2.4 mph E3.9 kmh E 2.4 mph3.9 kmh 30.08 in1018.6 mb 0.00 in0.0 mm 0.00 in0.0 mm 0.02 in0.5 mm
06:00 AM 68.2°F20.1°C 59.8°F15.4°C 60% 4.9 mph ESE7.9 kmh ESE 4.9 mph7.9 kmh 30.08 in1018.6 mb 0.00 in0.0 mm 0.00 in0.0 mm 0.02 in0.5 mm
06:03 AM 68.9°F20.5°C 59.9°F15.5°C 59% 6.1 mph ESE9.8 kmh ESE 6.1 mph9.8 kmh 30.08 in1018.6 mb 0.00 in0.0 mm 0.00 in0.0 mm 0.02 in0.5 mm
06:06 AM 69.6°F20.9°C 59.3°F15.2°C 57% 4.8 mph E7.7 kmh E 4.8 mph7.7 kmh 30.08 in1018.6 mb 0.00 in0.0 mm 0.00 in0.0 mm 0.02 in0.5 mm
06:09 AM 69.7°F20.9°C 60.2°F15.7°C 59% 6.5 mph SE10.5 kmh SE 6.5 mph10.5 kmh 30.08 in1018.6 mb 0.00 in0.0 mm 0.00 in0.0 mm 0.02 in0.5 mm
06:12 AM 69.1°F20.6°C 60.7°F15.9°C 59% 2.0 mph NNW3.2 kmh NNW 2.0 mph3.2 kmh 30.08 in1018.6 mb 0.00 in0.0 mm 0.00 in0.0 mm 0.02 in0.5 mm
06:15 AM 70.1°F21.2°C 60.6°F15.9°C 58% 4.8 mph ESE7.7 kmh ESE 4.9 mph7.9 kmh 30.08 in1018.6 mb 0.00 in0.0 mm 0.00 in0.0 mm 0.02 in0.5 mm
06:18 AM 69.7°F20.9°C 61.5°F16.4°C 59% 2.8 mph ESE4.5 kmh ESE 2.8 mph4.5 kmh 30.08 in1018.6 mb 0.00 in0.0 mm 0.00 in0.0 mm 0.02 in0.5 mm
06:21 AM 70.5°F21.4°C 59.6°F15.3°C 54% 3.2 mph SE5.1 kmh SE 3.2 mph5.1 kmh 30.08 in1018.6 mb 0.00 in0.0 mm 0.00 in0.0 mm 0.02 in0.5 mm
06:24 AM 71.3°F21.8°C 60.8°F16.0°C 56% 2.8 mph ESE4.5 kmh ESE 2.9 mph4.7 kmh 30.08 in1018.6 mb 0.00 in0.0 mm 0.00 in0.0 mm 0.02 in0.5 mm
06:27 AM 71.0°F21.7°C 61.2°F16.2°C 56% 4.4 mph ESE7.1 kmh ESE 4.4 mph7.1 kmh 30.08 in1018.6 mb 0.00 in0.0 mm 0.00 in0.0 mm 0.02 in0.5 mm
06:30 AM 69.5°F20.8°C 60.3°F15.7°C 54% 7.6 mph E12.2 kmh E 7.6 mph12.2 kmh 30.08 in1018.6 mb 0.00 in0.0 mm 0.00 in0.0 mm 0.02 in0.5 mm
06:33 AM 71.9°F22.2°C 60.3°F15.7°C 53% 2.8 mph NNW4.5 kmh NNW 2.9 mph4.7 kmh 30.09 in1019.0 mb 0.00 in0.0 mm 0.00 in0.0 mm 0.02 in0.5 mm
06:36 AM 72.5°F22.5°C 60.8°F16.0°C 54% 4.8 mph ESE7.7 kmh ESE 4.8 mph7.7 kmh 30.09 in1019.0 mb 0.00 in0.0 mm 0.00 in0.0 mm 0.02 in0.5 mm
06:39 AM 71.9°F22.2°C 60.1°F15.6°C 52% 5.7 mph ESE9.2 kmh ESE 6.1 mph9.8 kmh 30.09 in1019.0 mb 0.00 in0.0 mm 0.00 in0.0 mm 0.02 in0.5 mm
06:42 AM 71.9°F22.2°C 60.8°F16.0°C 54% 4.0 mph NNW6.4 kmh NNW 4.0 mph6.4 kmh 30.09 in1019.0 mb 0.00 in0.0 mm 0.00 in0.0 mm 0.02 in0.5 mm
06:45 AM 71.9°F22.2°C 61.7°F16.5°C 56% 2.0 mph SE3.2 kmh SE 2.0 mph3.2 kmh 30.09 in1019.0 mb 0.00 in0.0 mm 0.00 in0.0 mm 0.02 in0.5 mm
06:48 AM 71.9°F22.2°C 61.3°F16.3°C 54% 3.6 mph NE5.8 kmh NE 3.6 mph5.8 kmh 30.09 in1019.0 mb 0.00 in0.0 mm 0.00 in0.0 mm 0.02 in0.5 mm
06:51 AM 73.2°F22.9°C 59.9°F15.5°C 51% 5.5 mph E8.9 kmh E 5.5 mph8.9 kmh 30.09 in1019.0 mb 0.00 in0.0 mm 0.00 in0.0 mm 0.02 in0.5 mm
06:54 AM 71.8°F22.1°C 62.3°F16.8°C 55% 3.8 mph ENE6.1 kmh ENE 3.8 mph6.1 kmh 30.09 in1019.0 mb 0.00 in0.0 mm 0.00 in0.0 mm 0.02 in0.5 mm
06:57 AM 71.9°F22.2°C 59.5°F15.3°C 50% 7.5 mph SE12.1 kmh SE 7.6 mph12.2 kmh 30.09 in1019.0 mb 0.00 in0.0 mm 0.00 in0.0 mm 0.02 in0.5 mm
07:00 AM 72.6°F22.6°C 60.9°F16.1°C 54% 4.8 mph NNW7.7 kmh NNW 4.8 mph7.7 kmh 30.09 in1019.0 mb 0.00 in0.0 mm 0.00 in0.0 mm 0.02 in0.5 mm
07:03 AM 72.2°F22.3°C 62.9°F17.2°C 57% 2.4 mph ENE3.9 kmh ENE 2.4 mph3.9 kmh 30.09 in1019.0 mb 0.00 in0.0 mm 0.00 in0.0 mm 0.02 in0.5 mm
07:06 AM 73.0°F22.8°C 61.1°F16.2°C 52% 8.0 mph NNW12.9 kmh NNW 8.0 mph12.9 kmh 30.09 in1019.0 mb 0.00 in0.0 mm 0.00 in0.0 mm 0.02 in0.5 mm
07:09 AM 72.4°F22.4°C 61.8°F16.6°C 55% 2.4 mph E3.9 kmh E 2.4 mph3.9 kmh 30.09 in1019.0 mb 0.00 in0.0 mm 0.00 in0.0 mm 0.02 in0.5 mm
07:12 AM 72.4°F22.4°C 62.5°F16.9°C 57% 3.2 mph NNW5.1 kmh NNW 3.2 mph5.1 kmh 30.09 in1019.0 mb 0.00 in0.0 mm 0.00 in0.0 mm 0.02 in0.5 mm
07:15 AM 71.7°F22.1°C 62.2°F16.8°C 56% 6.1 mph ESE9.8 kmh ESE 6.1 mph9.8 kmh 30.09 in1019.0 mb 0.00 in0.0 mm 0.00 in0.0 mm 0.02 in0.5 mm
07:18 AM 71.7°F22.1°C 61.1°F16.2°C 55% 2.7 mph E4.3 kmh E 2.9 mph4.7 kmh 30.09 in1019.0 mb 0.00 in0.0 mm 0.00 in0.0 mm 0.02 in0.5 mm
07:21 AM 71.7°F22.1°C 62.2°F16.8°C 57% 2.0 mph SE3.2 kmh SE 2.0 mph3.2 kmh 30.09 in1019.0 mb 0.00 in0.0 mm 0.00 in0.0 mm 0.02 in0.5 mm
07:24 AM 72.4°F22.4°C 60.9°F16.1°C 55% 2.0 mph SE3.2 kmh SE 2.0 mph3.2 kmh 30.09 in1019.0 mb 0.00 in0.0 mm 0.00 in0.0 mm 0.02 in0.5 mm
07:27 AM 72.6°F22.6°C 61.6°F16.4°C 56% 5.2 mph SE8.4 kmh SE 5.3 mph8.5 kmh 30.09 in1019.0 mb 0.00 in0.0 mm 0.00 in0.0 mm 0.02 in0.5 mm
07:30 AM 73.0°F22.8°C 61.0°F16.1°C 56% 4.4 mph SE7.1 kmh SE 4.4 mph7.1 kmh 30.09 in1019.0 mb 0.00 in0.0 mm 0.00 in0.0 mm 0.02 in0.5 mm
07:33 AM 72.4°F22.4°C 61.4°F16.3°C 56% 6.4 mph SE10.3 kmh SE 6.4 mph10.3 kmh 30.09 in1019.0 mb 0.00 in0.0 mm 0.00 in0.0 mm 0.02 in0.5 mm
07:36 AM 72.8°F22.7°C 61.2°F16.2°C 56% 2.4 mph E3.9 kmh E 2.4 mph3.9 kmh 30.09 in1019.0 mb 0.00 in0.0 mm 0.00 in0.0 mm 0.02 in0.5 mm
07:39 AM 72.8°F22.7°C 61.3°F16.3°C 56% 6.0 mph ESE9.7 kmh ESE 6.0 mph9.7 kmh 30.09 in1019.0 mb 0.00 in0.0 mm 0.00 in0.0 mm 0.02 in0.5 mm
07:42 AM 73.1°F22.8°C 61.4°F16.3°C 56% 3.6 mph SE5.8 kmh SE 3.6 mph5.8 kmh 30.09 in1019.0 mb 0.00 in0.0 mm 0.00 in0.0 mm 0.02 in0.5 mm
07:45 AM 72.6°F22.6°C 61.3°F16.3°C 57% 4.4 mph ESE7.1 kmh ESE 4.5 mph7.2 kmh 30.09 in1019.0 mb 0.00 in0.0 mm 0.00 in0.0 mm 0.02 in0.5 mm
07:48 AM 72.7°F22.6°C 61.8°F16.6°C 57% 6.0 mph SE9.7 kmh SE 6.0 mph9.7 kmh 30.09 in1019.0 mb 0.00 in0.0 mm 0.00 in0.0 mm 0.02 in0.5 mm
07:51 AM 72.6°F22.6°C 61.6°F16.4°C 58% 6.5 mph ESE10.5 kmh ESE 6.5 mph10.5 kmh 30.09 in1019.0 mb 0.00 in0.0 mm 0.00 in0.0 mm 0.02 in0.5 mm
07:54 AM 72.6°F22.6°C 62.4°F16.9°C 58% 6.0 mph NNW9.7 kmh NNW 6.0 mph9.7 kmh 30.09 in1019.0 mb 0.00 in0.0 mm 0.00 in0.0 mm 0.02 in0.5 mm
07:57 AM 72.7°F22.6°C 61.2°F16.2°C 57% 4.4 mph ESE7.1 kmh ESE 4.5 mph7.2 kmh 30.09 in1019.0 mb 0.00 in0.0 mm 0.00 in0.0 mm 0.02 in0.5 mm
08:00 AM 72.7°F22.6°C 61.6°F16.4°C 57% 2.8 mph SE4.5 kmh SE 2.8 mph4.5 kmh 30.09 in1019.0 mb 0.00 in0.0 mm 0.00 in0.0 mm 0.02 in0.5 mm
08:03 AM 72.4°F22.4°C 62.4°F16.9°C 59% 6.9 mph NNW11.1 kmh NNW 6.9 mph11.1 kmh 30.09 in1019.0 mb 0.00 in0.0 mm 0.00 in0.0 mm 0.02 in0.5 mm
08:06 AM 72.4°F22.4°C 61.9°F16.6°C 58% 5.2 mph ESE8.4 kmh ESE 5.2 mph8.4 kmh 30.09 in1019.0 mb 0.00 in0.0 mm 0.00 in0.0 mm 0.02 in0.5 mm
08:09 AM 72.1°F22.3°C 61.1°F16.2°C 56% 10.1 mph ESE16.3 kmh ESE 10.2 mph16.4 kmh 30.09 in1019.0 mb 0.00 in0.0 mm 0.00 in0.0 mm 0.02 in0.5 mm
08:12 AM 71.7°F22.1°C 61.9°F16.6°C 58% 2.8 mph SE4.5 kmh SE 2.8 mph4.5 kmh 30.09 in1019.0 mb 0.00 in0.0 mm 0.00 in0.0 mm 0.02 in0.5 mm
08:15 AM 71.2°F21.8°C 62.2°F16.8°C 59% 2.4 mph ENE3.9 kmh ENE 2.4 mph3.9 kmh 30.09 in1019.0 mb 0.00 in0.0 mm 0.00 in0.0 mm 0.02 in0.5 mm
08:18 AM 71.3°F21.8°C 61.0°F16.1°C 57% 6.1 mph ESE9.8 kmh ESE 6.1 mph9.8 kmh 30.09 in1019.0 mb 0.00 in0.0 mm 0.00 in0.0 mm 0.02 in0.5 mm
08:21 AM 71.0°F21.7°C 61.3°F16.3°C 57% 4.4 mph SE7.1 kmh SE 4.5 mph7.2 kmh 30.09 in1019.0 mb 0.00 in0.0 mm 0.00 in0.0 mm 0.02 in0.5 mm
08:24 AM 70.7°F21.5°C 60.6°F15.9°C 57% 8.1 mph SE13.0 kmh SE 8.1 mph13.0 kmh 30.09 in1019.0 mb 0.00 in0.0 mm 0.00 in0.0 mm 0.02 in0.5 mm
08:27 AM 71.0°F21.7°C 61.2°F16.2°C 58% 7.7 mph ESE12.4 kmh ESE 7.8 mph12.6 kmh 30.09 in1019.0 mb 0.00 in0.0 mm 0.00 in0.0 mm 0.02 in0.5 mm
08:30 AM 70.5°F21.4°C 61.2°F16.2°C 59% 6.5 mph SE10.5 kmh SE 6.5 mph10.5 kmh 30.09 in1019.0 mb 0.00 in0.0 mm 0.00 in0.0 mm 0.02 in0.5 mm
08:33 AM 70.8°F21.6°C 62.3°F16.8°C 61% 5.2 mph NNW8.4 kmh NNW 5.3 mph8.5 kmh 30.09 in1019.0 mb 0.00 in0.0 mm 0.00 in0.0 mm 0.02 in0.5 mm
08:36 AM 70.6°F21.4°C 61.5°F16.4°C 60% 1.2 mph NNW1.9 kmh NNW 1.2 mph1.9 kmh 30.09 in1019.0 mb 0.00 in0.0 mm 0.00 in0.0 mm 0.02 in0.5 mm
08:39 AM 70.4°F21.3°C 61.0°F16.1°C 59% 5.6 mph ESE9.0 kmh ESE 5.7 mph9.2 kmh 30.09 in1019.0 mb 0.00 in0.0 mm 0.00 in0.0 mm 0.02 in0.5 mm
08:42 AM 70.4°F21.3°C 62.4°F16.9°C 62% 2.3 mph E3.7 kmh E 2.3 mph3.7 kmh 30.09 in1019.0 mb 0.00 in0.0 mm 0.00 in0.0 mm 0.02 in0.5 mm
08:45 AM 70.3°F21.3°C 61.8°F16.6°C 61% 4.0 mph E6.4 kmh E 4.1 mph6.6 kmh 30.09 in1019.0 mb 0.00 in0.0 mm 0.00 in0.0 mm 0.02 in0.5 mm
08:48 AM 70.5°F21.4°C 62.0°F16.7°C 60% 5.7 mph SE9.2 kmh SE 5.7 mph9.2 kmh 30.09 in1019.0 mb 0.00 in0.0 mm 0.00 in0.0 mm 0.02 in0.5 mm
08:51 AM 70.8°F21.6°C 62.7°F17.1°C 62% 6.3 mph NNW10.1 kmh NNW 6.4 mph10.3 kmh 30.09 in1019.0 mb 0.00 in0.0 mm 0.00 in0.0 mm 0.02 in0.5 mm
08:54 AM 70.7°F21.5°C 61.4°F16.3°C 60% 5.1 mph NNW8.2 kmh NNW 5.2 mph8.4 kmh 30.09 in1019.0 mb 0.00 in0.0 mm 0.00 in0.0 mm 0.02 in0.5 mm
08:57 AM 71.2°F21.8°C 62.6°F17.0°C 61% 7.3 mph NNW11.7 kmh NNW 7.3 mph11.7 kmh 30.09 in1019.0 mb 0.00 in0.0 mm 0.00 in0.0 mm 0.02 in0.5 mm
09:00 AM 71.3°F21.8°C 62.2°F16.8°C 61% 4.0 mph NNW6.4 kmh NNW 4.0 mph6.4 kmh 30.09 in1019.0 mb 0.00 in0.0 mm 0.00 in0.0 mm 0.02 in0.5 mm
09:03 AM 70.8°F21.6°C 62.3°F16.8°C 61% 5.6 mph NNW9.0 kmh NNW 5.6 mph9.0 kmh 30.09 in1019.0 mb 0.00 in0.0 mm 0.00 in0.0 mm 0.02 in0.5 mm
09:06 AM 70.7°F21.5°C 62.3°F16.8°C 61% 5.7 mph ENE9.2 kmh ENE 5.7 mph9.2 kmh 30.09 in1019.0 mb 0.00 in0.0 mm 0.00 in0.0 mm 0.02 in0.5 mm
09:09 AM 70.7°F21.5°C 62.2°F16.8°C 61% 7.3 mph SE11.7 kmh SE 7.3 mph11.7 kmh 30.09 in1019.0 mb 0.00 in0.0 mm 0.00 in0.0 mm 0.02 in0.5 mm
09:12 AM 71.0°F21.7°C 62.6°F17.0°C 62% 5.0 mph SE8.0 kmh SE 5.0 mph8.0 kmh 30.09 in1019.0 mb 0.00 in0.0 mm 0.00 in0.0 mm 0.02 in0.5 mm
09:15 AM 71.2°F21.8°C 62.9°F17.2°C 62% 6.9 mph ESE11.1 kmh ESE 6.9 mph11.1 kmh 30.09 in1019.0 mb 0.00 in0.0 mm 0.00 in0.0 mm 0.02 in0.5 mm
09:18 AM 71.3°F21.8°C 62.5°F16.9°C 61% 3.2 mph ENE5.1 kmh ENE 3.2 mph5.1 kmh 30.09 in1019.0 mb 0.00 in0.0 mm 0.00 in0.0 mm 0.02 in0.5 mm
09:21 AM 71.5°F21.9°C 61.7°F16.5°C 60% 7.6 mph SE12.2 kmh SE 7.7 mph12.4 kmh 30.09 in1019.0 mb 0.00 in0.0 mm 0.00 in0.0 mm 0.02 in0.5 mm
09:24 AM 71.5°F21.9°C 62.1°F16.7°C 61% 4.6 mph ESE7.4 kmh ESE 4.7 mph7.6 kmh 30.09 in1019.0 mb 0.00 in0.0 mm 0.00 in0.0 mm 0.02 in0.5 mm
09:27 AM 71.7°F22.1°C 62.8°F17.1°C 62% 6.0 mph SE9.7 kmh SE 6.0 mph9.7 kmh 30.09 in1019.0 mb 0.00 in0.0 mm 0.00 in0.0 mm 0.02 in0.5 mm
09:30 AM 72.3°F22.4°C 63.1°F17.3°C 62% 8.1 mph NNW13.0 kmh NNW 8.2 mph13.2 kmh 30.09 in1019.0 mb 0.00 in0.0 mm 0.00 in0.0 mm 0.02 in0.5 mm
09:33 AM 72.5°F22.5°C 63.1°F17.3°C 62% 6.1 mph NNW9.8 kmh NNW 6.1 mph9.8 kmh 30.09 in1019.0 mb 0.00 in0.0 mm 0.00 in0.0 mm 0.02 in0.5 mm
09:39 AM 72.8°F22.7°C 62.8°F17.1°C 60% 7.2 mph ESE11.6 kmh ESE 7.3 mph11.7 kmh 30.09 in1019.0 mb 0.00 in0.0 mm 0.00 in0.0 mm 0.02 in0.5 mm
09:42 AM 73.1°F22.8°C 62.0°F16.7°C 58% 8.6 mph NNW13.8 kmh NNW 8.6 mph13.8 kmh 30.09 in1019.0 mb 0.00 in0.0 mm 0.00 in0.0 mm 0.02 in0.5 mm
09:45 AM 73.5°F23.1°C 62.7°F17.1°C 60% 3.2 mph E5.1 kmh E 3.2 mph5.1 kmh 30.09 in1019.0 mb 0.00 in0.0 mm 0.00 in0.0 mm 0.02 in0.5 mm
09:48 AM 73.6°F23.1°C 61.7°F16.5°C 58% 8.0 mph SE12.9 kmh SE 8.1 mph13.0 kmh 30.09 in1019.0 mb 0.00 in0.0 mm 0.00 in0.0 mm 0.02 in0.5 mm
09:51 AM 74.0°F23.3°C 62.9°F17.2°C 60% 6.1 mph E9.8 kmh E 6.1 mph9.8 kmh 30.09 in1019.0 mb 0.00 in0.0 mm 0.00 in0.0 mm 0.02 in0.5 mm
09:54 AM 73.7°F23.2°C 62.0°F16.7°C 57% 4.8 mph SE7.7 kmh SE 4.8 mph7.7 kmh 30.09 in1019.0 mb 0.00 in0.0 mm 0.00 in0.0 mm 0.02 in0.5 mm
09:57 AM 74.4°F23.6°C 62.9°F17.2°C 59% 7.3 mph NNW11.7 kmh NNW 7.3 mph11.7 kmh 30.09 in1019.0 mb 0.00 in0.0 mm 0.00 in0.0 mm 0.02 in0.5 mm
10:00 AM 74.4°F23.6°C 62.0°F16.7°C 58% 8.8 mph ESE14.2 kmh ESE 8.8 mph14.2 kmh 30.09 in1019.0 mb 0.00 in0.0 mm 0.00 in0.0 mm 0.02 in0.5 mm
10:03 AM 74.5°F23.6°C 63.1°F17.3°C 59% 4.0 mph ENE6.4 kmh ENE 4.0 mph6.4 kmh 30.09 in1019.0 mb 0.00 in0.0 mm 0.00 in0.0 mm 0.02 in0.5 mm
10:06 AM 75.2°F24.0°C 64.3°F17.9°C 60% 4.7 mph ESE7.6 kmh ESE 4.7 mph7.6 kmh 30.09 in1019.0 mb 0.00 in0.0 mm 0.00 in0.0 mm 0.02 in0.5 mm
10:09 AM 74.4°F23.6°C 62.0°F16.7°C 56% 7.7 mph ESE12.4 kmh ESE 7.7 mph12.4 kmh 30.09 in1019.0 mb 0.00 in0.0 mm 0.00 in0.0 mm 0.02 in0.5 mm
10:12 AM 74.5°F23.6°C 62.1°F16.7°C 56% 5.6 mph SE9.0 kmh SE 5.6 mph9.0 kmh 30.09 in1019.0 mb 0.00 in0.0 mm 0.00 in0.0 mm 0.02 in0.5 mm
10:15 AM 74.4°F23.6°C 62.4°F16.9°C 55% 6.6 mph SE10.6 kmh SE 6.6 mph10.6 kmh 30.10 in1019.3 mb 0.00 in0.0 mm 0.00 in0.0 mm 0.02 in0.5 mm
10:18 AM 74.4°F23.6°C 62.4°F16.9°C 55% 7.3 mph NNW11.7 kmh NNW 7.3 mph11.7 kmh 30.09 in1019.0 mb 0.00 in0.0 mm 0.00 in0.0 mm 0.02 in0.5 mm
10:21 AM 74.8°F23.8°C 63.7°F17.6°C 57% 8.5 mph ESE13.7 kmh ESE 8.6 mph13.8 kmh 30.10 in1019.3 mb 0.00 in0.0 mm 0.00 in0.0 mm 0.02 in0.5 mm
10:24 AM 74.3°F23.5°C 62.0°F16.7°C 54% 11.1 mph ESE17.9 kmh ESE 11.2 mph18.0 kmh 30.10 in1019.3 mb 0.00 in0.0 mm 0.00 in0.0 mm 0.02 in0.5 mm
10:27 AM 74.6°F23.7°C 61.3°F16.3°C 52% 5.3 mph SE8.5 kmh SE 5.3 mph8.5 kmh 30.10 in1019.3 mb 0.00 in0.0 mm 0.00 in0.0 mm 0.02 in0.5 mm
10:30 AM 75.1°F23.9°C 63.3°F17.4°C 55% 5.7 mph SE9.2 kmh SE 5.7 mph9.2 kmh 30.10 in1019.3 mb 0.00 in0.0 mm 0.00 in0.0 mm 0.02 in0.5 mm
10:33 AM 75.1°F23.9°C 63.7°F17.6°C 55% 4.8 mph NNW7.7 kmh NNW 4.9 mph7.9 kmh 30.09 in1019.0 mb 0.00 in0.0 mm 0.00 in0.0 mm 0.02 in0.5 mm
10:36 AM 75.2°F24.0°C 63.2°F17.3°C 54% 9.3 mph NNW15.0 kmh NNW 9.3 mph15.0 kmh 30.10 in1019.3 mb 0.00 in0.0 mm 0.00 in0.0 mm 0.02 in0.5 mm
10:39 AM 74.9°F23.8°C 62.3°F16.8°C 52% 8.0 mph NNW12.9 kmh NNW 8.1 mph13.0 kmh 30.10 in1019.3 mb 0.00 in0.0 mm 0.00 in0.0 mm 0.02 in0.5 mm
10:42 AM 75.1°F23.9°C 62.5°F16.9°C 53% 6.6 mph SE10.6 kmh SE 6.6 mph10.6 kmh 30.10 in1019.3 mb 0.00 in0.0 mm 0.00 in0.0 mm 0.02 in0.5 mm
10:45 AM 75.7°F24.3°C 63.3°F17.4°C 53% 5.6 mph NNW9.0 kmh NNW 5.6 mph9.0 kmh 30.10 in1019.3 mb 0.00 in0.0 mm 0.00 in0.0 mm 0.02 in0.5 mm
10:48 AM 76.3°F24.6°C 64.0°F17.8°C 53% 8.1 mph SE13.0 kmh SE 8.2 mph13.2 kmh 30.10 in1019.3 mb 0.00 in0.0 mm 0.00 in0.0 mm 0.02 in0.5 mm
10:51 AM 75.8°F24.3°C 62.7°F17.1°C 51% 8.0 mph ESE12.9 kmh ESE 8.1 mph13.0 kmh 30.10 in1019.3 mb 0.00 in0.0 mm 0.00 in0.0 mm 0.02 in0.5 mm
10:54 AM 76.0°F24.4°C 64.4°F18.0°C 53% 4.8 mph ESE7.7 kmh ESE 4.8 mph7.7 kmh 30.10 in1019.3 mb 0.00 in0.0 mm 0.00 in0.0 mm 0.02 in0.5 mm
10:57 AM 76.3°F24.6°C 64.1°F17.8°C 52% 4.8 mph ESE7.7 kmh ESE 4.9 mph7.9 kmh 30.10 in1019.3 mb 0.00 in0.0 mm 0.00 in0.0 mm 0.02 in0.5 mm
11:00 AM 76.4°F24.7°C 63.2°F17.3°C 50% 6.8 mph NNW10.9 kmh NNW 6.8 mph10.9 kmh 30.09 in1019.0 mb 0.00 in0.0 mm 0.00 in0.0 mm 0.02 in0.5 mm
11:03 AM 75.9°F24.4°C 62.0°F16.7°C 48% 6.5 mph SE10.5 kmh SE 6.5 mph10.5 kmh 30.10 in1019.3 mb 0.00 in0.0 mm 0.00 in0.0 mm 0.02 in0.5 mm
11:06 AM 76.1°F24.5°C 62.9°F17.2°C 49% 5.7 mph ESE9.2 kmh ESE 5.7 mph9.2 kmh 30.09 in1019.0 mb 0.00 in0.0 mm 0.00 in0.0 mm 0.02 in0.5 mm
11:09 AM 76.4°F24.7°C 65.1°F18.4°C 52% 4.8 mph SSE7.7 kmh SSE 4.8 mph7.7 kmh 30.10 in1019.3 mb 0.00 in0.0 mm 0.00 in0.0 mm 0.02 in0.5 mm
11:12 AM 76.6°F24.8°C 63.5°F17.5°C 49% 5.4 mph NNW8.7 kmh NNW 5.5 mph8.9 kmh 30.09 in1019.0 mb 0.00 in0.0 mm 0.00 in0.0 mm 0.02 in0.5 mm
11:15 AM 76.1°F24.5°C 62.4°F16.9°C 48% 6.9 mph NNW11.1 kmh NNW 6.9 mph11.1 kmh 30.09 in1019.0 mb 0.00 in0.0 mm 0.00 in0.0 mm 0.02 in0.5 mm
11:18 AM 76.6°F24.8°C 62.1°F16.7°C 47% 10.1 mph SE16.3 kmh SE 10.1 mph16.3 kmh 30.09 in1019.0 mb 0.00 in0.0 mm 0.00 in0.0 mm 0.02 in0.5 mm
11:21 AM 76.8°F24.9°C 63.2°F17.3°C 49% 4.8 mph NNW7.7 kmh NNW 4.8 mph7.7 kmh 30.09 in1019.0 mb 0.00 in0.0 mm 0.00 in0.0 mm 0.02 in0.5 mm
11:24 AM 77.3°F25.2°C 65.5°F18.6°C 51% 7.3 mph NE11.7 kmh NE 7.3 mph11.7 kmh 30.09 in1019.0 mb 0.00 in0.0 mm 0.00 in0.0 mm 0.02 in0.5 mm
11:27 AM 77.3°F25.2°C 64.1°F17.8°C 48% 7.1 mph ESE11.4 kmh ESE 7.3 mph11.7 kmh 30.09 in1019.0 mb 0.00 in0.0 mm 0.00 in0.0 mm 0.02 in0.5 mm
11:30 AM 77.3°F25.2°C 63.6°F17.6°C 48% 7.3 mph ESE11.7 kmh ESE 7.3 mph11.7 kmh 30.09 in1019.0 mb 0.00 in0.0 mm 0.00 in0.0 mm 0.02 in0.5 mm
11:33 AM 77.8°F25.4°C 65.2°F18.4°C 49% 4.6 mph NNW7.4 kmh NNW 4.6 mph7.4 kmh 30.09 in1019.0 mb 0.00 in0.0 mm 0.00 in0.0 mm 0.02 in0.5 mm
11:36 AM 78.5°F25.8°C 67.4°F19.7°C 52% 8.8 mph NNW14.2 kmh NNW 8.8 mph14.2 kmh 30.09 in1019.0 mb 0.00 in0.0 mm 0.00 in0.0 mm 0.02 in0.5 mm
11:39 AM 78.2°F25.7°C 66.0°F18.9°C 49% 3.2 mph E5.1 kmh E 3.2 mph5.1 kmh 30.09 in1019.0 mb 0.00 in0.0 mm 0.00 in0.0 mm 0.02 in0.5 mm
11:42 AM 77.7°F25.4°C 66.6°F19.2°C 50% 2.8 mph E4.5 kmh E 2.8 mph4.5 kmh 30.10 in1019.3 mb 0.00 in0.0 mm 0.00 in0.0 mm 0.02 in0.5 mm
11:45 AM 77.8°F25.4°C 66.0°F18.9°C 48% 6.5 mph ESE10.5 kmh ESE 6.5 mph10.5 kmh 30.09 in1019.0 mb 0.00 in0.0 mm 0.00 in0.0 mm 0.02 in0.5 mm
11:48 AM 77.9°F25.5°C 64.6°F18.1°C 47% 5.6 mph NNW9.0 kmh NNW 5.6 mph9.0 kmh 30.09 in1019.0 mb 0.00 in0.0 mm 0.00 in0.0 mm 0.02 in0.5 mm
11:51 AM 77.5°F25.3°C 63.2°F17.3°C 45% 8.6 mph ESE13.8 kmh ESE 8.6 mph13.8 kmh 30.09 in1019.0 mb 0.00 in0.0 mm 0.00 in0.0 mm 0.02 in0.5 mm
11:54 AM 78.2°F25.7°C 64.0°F17.8°C 46% 1.6 mph SE2.6 kmh SE 1.6 mph2.6 kmh 30.09 in1019.0 mb 0.00 in0.0 mm 0.00 in0.0 mm 0.02 in0.5 mm
11:57 AM 78.0°F25.6°C 64.4°F18.0°C 47% 10.9 mph ESE17.5 kmh ESE 11.0 mph17.7 kmh 30.09 in1019.0 mb 0.00 in0.0 mm 0.00 in0.0 mm 0.02 in0.5 mm
12:00 PM 78.6°F25.9°C 66.4°F19.1°C 49% 2.7 mph ESE4.3 kmh ESE 2.8 mph4.5 kmh 30.09 in1019.0 mb 0.00 in0.0 mm 0.00 in0.0 mm 0.02 in0.5 mm
12:03 PM 78.8°F26.0°C 63.7°F17.6°C 45% 2.3 mph E3.7 kmh E 2.3 mph3.7 kmh 30.09 in1019.0 mb 0.00 in0.0 mm 0.00 in0.0 mm 0.02 in0.5 mm
12:06 PM 78.8°F26.0°C 65.3°F18.5°C 46% 6.8 mph SE10.9 kmh SE 6.8 mph10.9 kmh 30.09 in1019.0 mb 0.00 in0.0 mm 0.00 in0.0 mm 0.02 in0.5 mm
12:09 PM 78.4°F25.8°C 64.5°F18.1°C 45% 7.9 mph NNW12.7 kmh NNW 8.0 mph12.9 kmh 30.09 in1019.0 mb 0.00 in0.0 mm 0.00 in0.0 mm 0.02 in0.5 mm
12:12 PM 79.0°F26.1°C 64.2°F17.9°C 45% 7.6 mph NNW12.2 kmh NNW 7.6 mph12.2 kmh 30.09 in1019.0 mb 0.00 in0.0 mm 0.00 in0.0 mm 0.02 in0.5 mm
12:15 PM 78.5°F25.8°C 63.5°F17.5°C 44% 8.4 mph SE13.5 kmh SE 8.4 mph13.5 kmh 30.09 in1019.0 mb 0.00 in0.0 mm 0.00 in0.0 mm 0.02 in0.5 mm
12:18 PM 79.3°F26.3°C 65.4°F18.6°C 46% 4.8 mph SE7.7 kmh SE 4.9 mph7.9 kmh 30.09 in1019.0 mb 0.00 in0.0 mm 0.00 in0.0 mm 0.02 in0.5 mm
12:21 PM 78.9°F26.1°C 65.2°F18.4°C 46% 6.4 mph ESE10.3 kmh ESE 6.4 mph10.3 kmh 30.09 in1019.0 mb 0.00 in0.0 mm 0.00 in0.0 mm 0.02 in0.5 mm
12:24 PM 79.5°F26.4°C 64.9°F18.3°C 45% 6.5 mph ESE10.5 kmh ESE 6.5 mph10.5 kmh 30.09 in1019.0 mb 0.00 in0.0 mm 0.00 in0.0 mm 0.02 in0.5 mm
12:27 PM 78.8°F26.0°C 64.6°F18.1°C 45% 5.1 mph SE8.2 kmh SE 5.1 mph8.2 kmh 30.09 in1019.0 mb 0.00 in0.0 mm 0.00 in0.0 mm 0.02 in0.5 mm
12:30 PM 79.1°F26.2°C 64.8°F18.2°C 45% 2.0 mph ESE3.2 kmh ESE 2.0 mph3.2 kmh 30.09 in1019.0 mb 0.00 in0.0 mm 0.00 in0.0 mm 0.02 in0.5 mm
12:33 PM 79.4°F26.3°C 66.9°F19.4°C 48% 3.6 mph SE5.8 kmh SE 3.6 mph5.8 kmh 30.09 in1019.0 mb 0.00 in0.0 mm 0.00 in0.0 mm 0.02 in0.5 mm
12:36 PM 79.5°F26.4°C 65.4°F18.6°C 45% 8.0 mph SE12.9 kmh SE 8.1 mph13.0 kmh 30.09 in1019.0 mb 0.00 in0.0 mm 0.00 in0.0 mm 0.02 in0.5 mm
12:39 PM 79.9°F26.6°C 66.9°F19.4°C 47% 5.5 mph ESE8.9 kmh ESE 5.5 mph8.9 kmh 30.09 in1019.0 mb 0.00 in0.0 mm 0.00 in0.0 mm 0.02 in0.5 mm
12:42 PM 80.3°F26.8°C 66.5°F19.2°C 46% 3.5 mph NNW5.6 kmh NNW 3.5 mph5.6 kmh 30.09 in1019.0 mb 0.00 in0.0 mm 0.00 in0.0 mm 0.02 in0.5 mm
12:45 PM 80.7°F27.1°C 66.7°F19.3°C 46% 3.4 mph SE5.5 kmh SE 3.4 mph5.5 kmh 30.09 in1019.0 mb 0.00 in0.0 mm 0.00 in0.0 mm 0.02 in0.5 mm
12:48 PM 80.6°F27.0°C 66.4°F19.1°C 45% 2.4 mph NNW3.9 kmh NNW 2.4 mph3.9 kmh 30.09 in1019.0 mb 0.00 in0.0 mm 0.00 in0.0 mm 0.02 in0.5 mm
12:51 PM 80.4°F26.9°C 66.1°F18.9°C 46% 8.1 mph SE13.0 kmh SE 8.2 mph13.2 kmh 30.09 in1019.0 mb 0.00 in0.0 mm 0.00 in0.0 mm 0.02 in0.5 mm
12:54 PM 80.7°F27.1°C 66.2°F19.0°C 46% 0.8 mph SE1.3 kmh SE 0.8 mph1.3 kmh 30.09 in1019.0 mb 0.00 in0.0 mm 0.00 in0.0 mm 0.02 in0.5 mm
12:57 PM 79.1°F26.2°C 66.0°F18.9°C 45% 6.7 mph ESE10.8 kmh ESE 6.8 mph10.9 kmh 30.09 in1019.0 mb 0.00 in0.0 mm 0.00 in0.0 mm 0.02 in0.5 mm
01:00 PM 79.1°F26.2°C 64.9°F18.3°C 45% 8.5 mph ESE13.7 kmh ESE 8.6 mph13.8 kmh 30.09 in1019.0 mb 0.00 in0.0 mm 0.00 in0.0 mm 0.02 in0.5 mm
01:03 PM 79.7°F26.5°C 67.5°F19.7°C 49% 3.7 mph ENE6.0 kmh ENE 3.9 mph6.3 kmh 30.09 in1019.0 mb 0.00 in0.0 mm 0.00 in0.0 mm 0.02 in0.5 mm
01:06 PM 78.9°F26.1°C 67.5°F19.7°C 50% 2.3 mph E3.7 kmh E 2.5 mph4.0 kmh 30.09 in1019.0 mb 0.00 in0.0 mm 0.00 in0.0 mm 0.02 in0.5 mm
01:09 PM 78.5°F25.8°C 66.4°F19.1°C 48% 2.4 mph SE3.9 kmh SE 2.4 mph3.9 kmh 30.09 in1019.0 mb 0.00 in0.0 mm 0.00 in0.0 mm 0.02 in0.5 mm
01:12 PM 79.3°F26.3°C 66.7°F19.3°C 49% 3.6 mph NNW5.8 kmh NNW 3.7 mph6.0 kmh 30.09 in1019.0 mb 0.00 in0.0 mm 0.00 in0.0 mm 0.02 in0.5 mm
01:15 PM 79.9°F26.6°C 66.0°F18.9°C 48% 4.0 mph NNW6.4 kmh NNW 4.0 mph6.4 kmh 30.09 in1019.0 mb 0.00 in0.0 mm 0.00 in0.0 mm 0.02 in0.5 mm
01:18 PM 81.1°F27.3°C 65.6°F18.7°C 48% 9.9 mph ESE15.9 kmh ESE 10.0 mph16.1 kmh 30.09 in1019.0 mb 0.00 in0.0 mm 0.00 in0.0 mm 0.02 in0.5 mm
01:21 PM 80.2°F26.8°C 65.9°F18.8°C 48% 3.2 mph NNW5.1 kmh NNW 3.3 mph5.3 kmh 30.09 in1019.0 mb 0.00 in0.0 mm 0.00 in0.0 mm 0.02 in0.5 mm
01:24 PM 80.5°F26.9°C 66.1°F18.9°C 49% 12.5 mph SE20.1 kmh SE 12.6 mph20.3 kmh 30.09 in1019.0 mb 0.00 in0.0 mm 0.00 in0.0 mm 0.02 in0.5 mm
01:27 PM 80.7°F27.1°C 66.7°F19.3°C 49% 9.3 mph ESE15.0 kmh ESE 9.4 mph15.1 kmh 30.09 in1019.0 mb 0.00 in0.0 mm 0.00 in0.0 mm 0.02 in0.5 mm
01:30 PM 79.4°F26.3°C 66.6°F19.2°C 49% 5.0 mph NNW8.0 kmh NNW 5.0 mph8.0 kmh 30.09 in1019.0 mb 0.00 in0.0 mm 0.00 in0.0 mm 0.02 in0.5 mm
01:33 PM 78.6°F25.9°C 65.6°F18.7°C 49% 7.3 mph NNW11.7 kmh NNW 7.3 mph11.7 kmh 30.10 in1019.3 mb 0.00 in0.0 mm 0.00 in0.0 mm 0.02 in0.5 mm
01:36 PM 78.0°F25.6°C 64.2°F17.9°C 49% 4.0 mph SE6.4 kmh SE 4.1 mph6.6 kmh 30.09 in1019.0 mb 0.00 in0.0 mm 0.00 in0.0 mm 0.02 in0.5 mm
01:39 PM 78.0°F25.6°C 65.6°F18.7°C 50% 3.6 mph NNW5.8 kmh NNW 3.6 mph5.8 kmh 30.10 in1019.3 mb 0.00 in0.0 mm 0.00 in0.0 mm 0.02 in0.5 mm
01:42 PM 78.6°F25.9°C 65.3°F18.5°C 51% 6.5 mph ESE10.5 kmh ESE 6.5 mph10.5 kmh 30.10 in1019.3 mb 0.00 in0.0 mm 0.00 in0.0 mm 0.02 in0.5 mm
01:45 PM 78.9°F26.1°C 65.2°F18.4°C 51% 10.6 mph SE17.1 kmh SE 10.6 mph17.1 kmh 30.10 in1019.3 mb 0.00 in0.0 mm 0.00 in0.0 mm 0.02 in0.5 mm
01:48 PM 78.7°F25.9°C 66.0°F18.9°C 52% 10.9 mph NNW17.5 kmh NNW 10.9 mph17.5 kmh 30.10 in1019.3 mb 0.00 in0.0 mm 0.00 in0.0 mm 0.02 in0.5 mm
01:51 PM 78.5°F25.8°C 65.6°F18.7°C 52% 7.3 mph SSE11.7 kmh SSE 7.4 mph11.9 kmh 30.11 in1019.6 mb 0.00 in0.0 mm 0.00 in0.0 mm 0.02 in0.5 mm
01:54 PM 78.1°F25.6°C 65.8°F18.8°C 52% 6.9 mph SE11.1 kmh SE 6.9 mph11.1 kmh 30.10 in1019.3 mb 0.00 in0.0 mm 0.00 in0.0 mm 0.02 in0.5 mm
01:57 PM 77.8°F25.4°C 65.2°F18.4°C 51% 6.5 mph ESE10.5 kmh ESE 6.5 mph10.5 kmh 30.10 in1019.3 mb 0.00 in0.0 mm 0.00 in0.0 mm 0.02 in0.5 mm
02:00 PM 77.3°F25.2°C 64.4°F18.0°C 51% 6.1 mph SE9.8 kmh SE 6.1 mph9.8 kmh 30.10 in1019.3 mb 0.00 in0.0 mm 0.00 in0.0 mm 0.02 in0.5 mm
02:03 PM 77.0°F25.0°C 65.4°F18.6°C 53% 10.9 mph NNW17.5 kmh NNW 11.0 mph17.7 kmh 30.10 in1019.3 mb 0.00 in0.0 mm 0.00 in0.0 mm 0.02 in0.5 mm
02:06 PM 77.3°F25.2°C 65.2°F18.4°C 53% 7.9 mph NNW12.7 kmh NNW 8.0 mph12.9 kmh 30.11 in1019.6 mb 0.00 in0.0 mm 0.00 in0.0 mm 0.02 in0.5 mm
02:09 PM 77.3°F25.2°C 65.6°F18.7°C 53% 7.6 mph ESE12.2 kmh ESE 7.6 mph12.2 kmh 30.11 in1019.6 mb 0.00 in0.0 mm 0.00 in0.0 mm 0.02 in0.5 mm
02:12 PM 77.3°F25.2°C 64.8°F18.2°C 53% 7.6 mph ESE12.2 kmh ESE 7.6 mph12.2 kmh 30.10 in1019.3 mb 0.00 in0.0 mm 0.00 in0.0 mm 0.02 in0.5 mm
02:15 PM 77.2°F25.1°C 66.0°F18.9°C 54% 5.2 mph SE8.4 kmh SE 5.2 mph8.4 kmh 30.10 in1019.3 mb 0.00 in0.0 mm 0.00 in0.0 mm 0.02 in0.5 mm
02:18 PM 77.2°F25.1°C 64.9°F18.3°C 53% 6.5 mph ESE10.5 kmh ESE 6.5 mph10.5 kmh 30.10 in1019.3 mb 0.00 in0.0 mm 0.00 in0.0 mm 0.02 in0.5 mm
02:21 PM 77.5°F25.3°C 66.7°F19.3°C 55% 5.7 mph NNW9.2 kmh NNW 5.7 mph9.2 kmh 30.10 in1019.3 mb 0.00 in0.0 mm 0.00 in0.0 mm 0.02 in0.5 mm
02:24 PM 78.7°F25.9°C 66.4°F19.1°C 55% 8.9 mph NNW14.3 kmh NNW 9.0 mph14.5 kmh 30.10 in1019.3 mb 0.00 in0.0 mm 0.00 in0.0 mm 0.02 in0.5 mm
02:30 PM 80.5°F26.9°C 65.9°F18.8°C 52% 12.7 mph NNW20.4 kmh NNW 12.9 mph20.8 kmh 30.10 in1019.3 mb 0.00 in0.0 mm 0.00 in0.0 mm 0.02 in0.5 mm
02:33 PM 80.4°F26.9°C 66.5°F19.2°C 52% 9.9 mph ESE15.9 kmh ESE 9.9 mph15.9 kmh 30.09 in1019.0 mb 0.00 in0.0 mm 0.00 in0.0 mm 0.02 in0.5 mm
02:36 PM 81.2°F27.3°C 67.8°F19.9°C 53% 5.7 mph ESE9.2 kmh ESE 5.7 mph9.2 kmh 30.09 in1019.0 mb 0.00 in0.0 mm 0.00 in0.0 mm 0.02 in0.5 mm
02:39 PM 81.4°F27.4°C 67.6°F19.8°C 52% 4.0 mph ESE6.4 kmh ESE 4.1 mph6.6 kmh 30.09 in1019.0 mb 0.00 in0.0 mm 0.00 in0.0 mm 0.02 in0.5 mm
02:42 PM 80.7°F27.1°C 66.5°F19.2°C 50% 3.5 mph ESE5.6 kmh ESE 3.6 mph5.8 kmh 30.09 in1019.0 mb 0.00 in0.0 mm 0.00 in0.0 mm 0.02 in0.5 mm
02:45 PM 81.7°F27.6°C 66.8°F19.3°C 50% 4.2 mph SE6.8 kmh SE 4.3 mph6.9 kmh 30.09 in1019.0 mb 0.00 in0.0 mm 0.00 in0.0 mm 0.02 in0.5 mm
02:48 PM 82.0°F27.8°C 67.8°F19.9°C 51% 8.4 mph ESE13.5 kmh ESE 8.5 mph13.7 kmh 30.09 in1019.0 mb 0.00 in0.0 mm 0.00 in0.0 mm 0.02 in0.5 mm
02:51 PM 81.3°F27.4°C 68.4°F20.2°C 52% 3.1 mph E5.0 kmh E 3.1 mph5.0 kmh 30.09 in1019.0 mb 0.00 in0.0 mm 0.00 in0.0 mm 0.02 in0.5 mm
02:54 PM 81.3°F27.4°C 67.5°F19.7°C 50% 4.4 mph SE7.1 kmh SE 4.5 mph7.2 kmh 30.09 in1019.0 mb 0.00 in0.0 mm 0.00 in0.0 mm 0.02 in0.5 mm
02:57 PM 82.3°F27.9°C 67.1°F19.5°C 50% 2.8 mph NNW4.5 kmh NNW 2.8 mph4.5 kmh 30.09 in1019.0 mb 0.00 in0.0 mm 0.00 in0.0 mm 0.02 in0.5 mm
03:00 PM 83.2°F28.4°C 67.7°F19.8°C 51% 3.6 mph NNW5.8 kmh NNW 3.7 mph6.0 kmh 30.09 in1019.0 mb 0.00 in0.0 mm 0.00 in0.0 mm 0.02 in0.5 mm
03:03 PM 83.9°F28.8°C 68.2°F20.1°C 51% 5.3 mph ESE8.5 kmh ESE 5.3 mph8.5 kmh 30.09 in1019.0 mb 0.00 in0.0 mm 0.00 in0.0 mm 0.02 in0.5 mm
03:06 PM 84.2°F29.0°C 68.4°F20.2°C 49% 2.4 mph NNW3.9 kmh NNW 2.5 mph4.0 kmh 30.09 in1019.0 mb 0.00 in0.0 mm 0.00 in0.0 mm 0.02 in0.5 mm
03:09 PM 83.6°F28.7°C 68.9°F20.5°C 50% 6.1 mph ESE9.8 kmh ESE 6.1 mph9.8 kmh 30.09 in1019.0 mb 0.00 in0.0 mm 0.00 in0.0 mm 0.02 in0.5 mm
03:12 PM 81.8°F27.7°C 67.2°F19.6°C 48% 4.8 mph SE7.7 kmh SE 4.9 mph7.9 kmh 30.09 in1019.0 mb 0.00 in0.0 mm 0.00 in0.0 mm 0.02 in0.5 mm
03:15 PM 81.7°F27.6°C 67.9°F19.9°C 49% 3.2 mph SE5.1 kmh SE 3.3 mph5.3 kmh 30.09 in1019.0 mb 0.00 in0.0 mm 0.00 in0.0 mm 0.02 in0.5 mm
03:18 PM 80.9°F27.2°C 68.3°F20.2°C 50% 5.2 mph E8.4 kmh E 5.3 mph8.5 kmh 30.09 in1019.0 mb 0.00 in0.0 mm 0.00 in0.0 mm 0.02 in0.5 mm
03:21 PM 79.9°F26.6°C 67.0°F19.4°C 49% 7.1 mph E11.4 kmh E 7.1 mph11.4 kmh 30.09 in1019.0 mb 0.00 in0.0 mm 0.00 in0.0 mm 0.02 in0.5 mm
03:24 PM 81.3°F27.4°C 69.0°F20.6°C 52% 1.6 mph ESE2.6 kmh ESE 1.6 mph2.6 kmh 30.09 in1019.0 mb 0.00 in0.0 mm 0.00 in0.0 mm 0.02 in0.5 mm
03:27 PM 82.3°F27.9°C 69.4°F20.8°C 52% Calm Calm -- 30.09 in1019.0 mb 0.00 in0.0 mm 0.00 in0.0 mm 0.02 in0.5 mm
03:30 PM 82.4°F28.0°C 67.7°F19.8°C 50% 6.7 mph NNW10.8 kmh NNW 6.8 mph10.9 kmh 30.09 in1019.0 mb 0.00 in0.0 mm 0.00 in0.0 mm 0.02 in0.5 mm
03:33 PM 83.2°F28.4°C 70.2°F21.2°C 52% 3.6 mph NE5.8 kmh NE 3.6 mph5.8 kmh 30.08 in1018.6 mb 0.00 in0.0 mm 0.00 in0.0 mm 0.02 in0.5 mm
03:36 PM 82.2°F27.9°C 68.2°F20.1°C 49% 4.0 mph ESE6.4 kmh ESE 4.0 mph6.4 kmh 30.09 in1019.0 mb 0.00 in0.0 mm 0.00 in0.0 mm 0.02 in0.5 mm
03:39 PM 84.2°F29.0°C 68.8°F20.4°C 51% 1.9 mph E3.1 kmh E 2.0 mph3.2 kmh 30.08 in1018.6 mb 0.00 in0.0 mm 0.00 in0.0 mm 0.02 in0.5 mm
03:45 PM 82.0°F27.8°C 67.4°F19.7°C 48% 11.5 mph SE18.5 kmh SE 11.5 mph18.5 kmh 30.08 in1018.6 mb 0.00 in0.0 mm 0.00 in0.0 mm 0.02 in0.5 mm
03:48 PM 81.5°F27.5°C 66.9°F19.4°C 49% 8.3 mph SE13.4 kmh SE 8.5 mph13.7 kmh 30.09 in1019.0 mb 0.00 in0.0 mm 0.00 in0.0 mm 0.02 in0.5 mm
03:54 PM 82.2°F27.9°C 67.1°F19.5°C 50% 5.2 mph SE8.4 kmh SE 5.2 mph8.4 kmh 30.09 in1019.0 mb 0.00 in0.0 mm 0.00 in0.0 mm 0.02 in0.5 mm
03:57 PM 83.3°F28.5°C 67.6°F19.8°C 50% 2.8 mph SE4.5 kmh SE 2.8 mph4.5 kmh 30.09 in1019.0 mb 0.00 in0.0 mm 0.00 in0.0 mm 0.02 in0.5 mm
04:00 PM 84.7°F29.3°C 66.7°F19.3°C 48% 0.8 mph SE1.3 kmh SE 0.8 mph1.3 kmh 30.09 in1019.0 mb 0.00 in0.0 mm 0.00 in0.0 mm 0.02 in0.5 mm
04:03 PM 85.1°F29.5°C 66.9°F19.4°C 47% 1.6 mph NNW2.6 kmh NNW 1.6 mph2.6 kmh 30.08 in1018.6 mb 0.00 in0.0 mm 0.00 in0.0 mm 0.02 in0.5 mm
04:06 PM 85.2°F29.6°C 67.9°F19.9°C 48% 1.6 mph NNW2.6 kmh NNW 1.6 mph2.6 kmh 30.09 in1019.0 mb 0.00 in0.0 mm 0.00 in0.0 mm 0.02 in0.5 mm
04:09 PM 84.2°F29.0°C 66.8°F19.3°C 46% 4.4 mph S7.1 kmh S 4.4 mph7.1 kmh 30.08 in1018.6 mb 0.00 in0.0 mm 0.00 in0.0 mm 0.02 in0.5 mm
04:12 PM 83.8°F28.8°C 66.5°F19.2°C 45% 4.1 mph SE6.6 kmh SE 4.1 mph6.6 kmh 30.09 in1019.0 mb 0.00 in0.0 mm 0.00 in0.0 mm 0.02 in0.5 mm
04:15 PM 82.2°F27.9°C 65.6°F18.7°C 45% 4.9 mph SE7.9 kmh SE 4.9 mph7.9 kmh 30.08 in1018.6 mb 0.00 in0.0 mm 0.00 in0.0 mm 0.02 in0.5 mm
04:18 PM 81.2°F27.3°C 65.9°F18.8°C 46% 6.1 mph ESE9.8 kmh ESE 6.2 mph10.0 kmh 30.09 in1019.0 mb 0.00 in0.0 mm 0.00 in0.0 mm 0.02 in0.5 mm
04:21 PM 80.0°F26.7°C 65.1°F18.4°C 47% 8.0 mph ESE12.9 kmh ESE 8.0 mph12.9 kmh 30.09 in1019.0 mb 0.00 in0.0 mm 0.00 in0.0 mm 0.02 in0.5 mm
04:24 PM 79.9°F26.6°C 65.6°F18.7°C 48% 3.6 mph SE5.8 kmh SE 3.7 mph6.0 kmh 30.09 in1019.0 mb 0.00 in0.0 mm 0.00 in0.0 mm 0.02 in0.5 mm
04:27 PM 79.8°F26.6°C 65.6°F18.7°C 48% 4.4 mph SE7.1 kmh SE 4.5 mph7.2 kmh 30.08 in1018.6 mb 0.00 in0.0 mm 0.00 in0.0 mm 0.02 in0.5 mm
04:30 PM 81.4°F27.4°C 65.4°F18.6°C 49% 5.3 mph ESE8.5 kmh ESE 5.3 mph8.5 kmh 30.09 in1019.0 mb 0.00 in0.0 mm 0.00 in0.0 mm 0.02 in0.5 mm
04:33 PM 82.3°F27.9°C 66.5°F19.2°C 49% 5.6 mph SE9.0 kmh SE 5.6 mph9.0 kmh 30.08 in1018.6 mb 0.00 in0.0 mm 0.00 in0.0 mm 0.02 in0.5 mm
04:36 PM 83.4°F28.6°C 66.4°F19.1°C 48% 2.4 mph ESE3.9 kmh ESE 2.4 mph3.9 kmh 30.08 in1018.6 mb 0.00 in0.0 mm 0.00 in0.0 mm 0.02 in0.5 mm
04:39 PM 85.0°F29.4°C 67.0°F19.4°C 49% 4.0 mph SE6.4 kmh SE 4.0 mph6.4 kmh 30.08 in1018.6 mb 0.00 in0.0 mm 0.00 in0.0 mm 0.02 in0.5 mm
04:42 PM 82.3°F27.9°C 66.7°F19.3°C 48% 1.2 mph SE1.9 kmh SE 1.2 mph1.9 kmh 30.09 in1019.0 mb 0.00 in0.0 mm 0.00 in0.0 mm 0.02 in0.5 mm
04:45 PM 81.3°F27.4°C 64.9°F18.3°C 46% 0.4 mph SSE0.6 kmh SSE 0.4 mph0.6 kmh 30.08 in1018.6 mb 0.00 in0.0 mm 0.00 in0.0 mm 0.02 in0.5 mm
04:48 PM 80.5°F26.9°C 65.7°F18.7°C 47% 1.5 mph SE2.4 kmh SE 1.6 mph2.6 kmh 30.09 in1019.0 mb 0.00 in0.0 mm 0.00 in0.0 mm 0.02 in0.5 mm
04:51 PM 80.2°F26.8°C 65.4°F18.6°C 47% 2.0 mph SSE3.2 kmh SSE 2.0 mph3.2 kmh 30.09 in1019.0 mb 0.00 in0.0 mm 0.00 in0.0 mm 0.02 in0.5 mm
04:54 PM 79.8°F26.6°C 65.4°F18.6°C 48% 2.8 mph NNW4.5 kmh NNW 2.8 mph4.5 kmh 30.09 in1019.0 mb 0.00 in0.0 mm 0.00 in0.0 mm 0.02 in0.5 mm
04:57 PM 79.3°F26.3°C 64.8°F18.2°C 48% 4.0 mph SE6.4 kmh SE 4.0 mph6.4 kmh 30.09 in1019.0 mb 0.00 in0.0 mm 0.00 in0.0 mm 0.02 in0.5 mm
05:00 PM 79.3°F26.3°C 65.0°F18.3°C 49% 3.9 mph SE6.3 kmh SE 3.9 mph6.3 kmh 30.09 in1019.0 mb 0.00 in0.0 mm 0.00 in0.0 mm 0.02 in0.5 mm
05:03 PM 79.1°F26.2°C 66.0°F18.9°C 50% 2.8 mph SE4.5 kmh SE 2.8 mph4.5 kmh 30.09 in1019.0 mb 0.00 in0.0 mm 0.00 in0.0 mm 0.02 in0.5 mm
05:06 PM 78.9°F26.1°C 64.6°F18.1°C 49% 3.2 mph SE5.1 kmh SE 3.3 mph5.3 kmh 30.09 in1019.0 mb 0.00 in0.0 mm 0.00 in0.0 mm 0.02 in0.5 mm
05:09 PM 78.4°F25.8°C 65.2°F18.4°C 50% 4.4 mph SE7.1 kmh SE 4.5 mph7.2 kmh 30.09 in1019.0 mb 0.00 in0.0 mm 0.00 in0.0 mm 0.02 in0.5 mm
05:12 PM 79.9°F26.6°C 65.8°F18.8°C 50% 2.4 mph SE3.9 kmh SE 2.4 mph3.9 kmh 30.09 in1019.0 mb 0.00 in0.0 mm 0.00 in0.0 mm 0.02 in0.5 mm
05:15 PM 80.4°F26.9°C 64.0°F17.8°C 47% 1.5 mph SSE2.4 kmh SSE 1.6 mph2.6 kmh 30.08 in1018.6 mb 0.00 in0.0 mm 0.00 in0.0 mm 0.02 in0.5 mm
05:18 PM 80.6°F27.0°C 65.0°F18.3°C 48% 2.4 mph SE3.9 kmh SE 2.4 mph3.9 kmh 30.09 in1019.0 mb 0.00 in0.0 mm 0.00 in0.0 mm 0.02 in0.5 mm
05:27 PM 81.4°F27.4°C 65.8°F18.8°C 49% 2.7 mph NNW4.3 kmh NNW 2.7 mph4.3 kmh 30.09 in1019.0 mb 0.00 in0.0 mm 0.00 in0.0 mm 0.02 in0.5 mm
05:30 PM 81.4°F27.4°C 64.6°F18.1°C 47% 3.6 mph SE5.8 kmh SE 3.6 mph5.8 kmh 30.09 in1019.0 mb 0.00 in0.0 mm 0.00 in0.0 mm 0.02 in0.5 mm
05:33 PM 81.1°F27.3°C 65.5°F18.6°C 48% 4.0 mph SE6.4 kmh SE 4.1 mph6.6 kmh 30.09 in1019.0 mb 0.00 in0.0 mm 0.00 in0.0 mm 0.02 in0.5 mm
05:36 PM 80.6°F27.0°C 65.7°F18.7°C 48% 3.6 mph SE5.8 kmh SE 3.6 mph5.8 kmh 30.09 in1019.0 mb 0.00 in0.0 mm 0.00 in0.0 mm 0.02 in0.5 mm
05:39 PM 80.7°F27.1°C 65.6°F18.7°C 49% 2.8 mph NNW4.5 kmh NNW 2.8 mph4.5 kmh 30.09 in1019.0 mb 0.00 in0.0 mm 0.00 in0.0 mm 0.02 in0.5 mm
05:42 PM 80.9°F27.2°C 66.0°F18.9°C 49% 3.2 mph NNW5.1 kmh NNW 3.3 mph5.3 kmh 30.09 in1019.0 mb 0.00 in0.0 mm 0.00 in0.0 mm 0.02 in0.5 mm
05:45 PM 81.5°F27.5°C 66.7°F19.3°C 49% 5.7 mph SE9.2 kmh SE 5.7 mph9.2 kmh 30.09 in1019.0 mb 0.00 in0.0 mm 0.00 in0.0 mm 0.02 in0.5 mm
05:48 PM 81.1°F27.3°C 65.9°F18.8°C 48% 2.4 mph SE3.9 kmh SE 2.4 mph3.9 kmh 30.09 in1019.0 mb 0.00 in0.0 mm 0.00 in0.0 mm 0.02 in0.5 mm
05:51 PM 81.6°F27.6°C 65.3°F18.5°C 48% 1.6 mph SE2.6 kmh SE 1.6 mph2.6 kmh 30.09 in1019.0 mb 0.00 in0.0 mm 0.00 in0.0 mm 0.02 in0.5 mm
05:54 PM 81.5°F27.5°C 64.8°F18.2°C 48% 2.0 mph SE3.2 kmh SE 2.0 mph3.2 kmh 30.09 in1019.0 mb 0.00 in0.0 mm 0.00 in0.0 mm 0.02 in0.5 mm
06:00 PM 81.8°F27.7°C 66.1°F18.9°C 49% 1.6 mph SSE2.6 kmh SSE 1.6 mph2.6 kmh 30.09 in1019.0 mb 0.00 in0.0 mm 0.00 in0.0 mm 0.02 in0.5 mm
06:03 PM 81.4°F27.4°C 65.6°F18.7°C 47% 0.4 mph NNW0.6 kmh NNW 0.4 mph0.6 kmh 30.09 in1019.0 mb 0.00 in0.0 mm 0.00 in0.0 mm 0.02 in0.5 mm
06:06 PM 81.4°F27.4°C 66.0°F18.9°C 49% 2.4 mph SE3.9 kmh SE 2.4 mph3.9 kmh 30.09 in1019.0 mb 0.00 in0.0 mm 0.00 in0.0 mm 0.02 in0.5 mm
06:09 PM 80.7°F27.1°C 67.1°F19.5°C 50% 2.4 mph SE3.9 kmh SE 2.4 mph3.9 kmh 30.09 in1019.0 mb 0.00 in0.0 mm 0.00 in0.0 mm 0.02 in0.5 mm
06:12 PM 80.3°F26.8°C 66.6°F19.2°C 50% 2.0 mph SE3.2 kmh SE 2.0 mph3.2 kmh 30.09 in1019.0 mb 0.00 in0.0 mm 0.00 in0.0 mm 0.02 in0.5 mm
06:15 PM 79.5°F26.4°C 66.5°F19.2°C 50% 2.8 mph ESE4.5 kmh ESE 2.8 mph4.5 kmh 30.09 in1019.0 mb 0.00 in0.0 mm 0.00 in0.0 mm 0.02 in0.5 mm
06:18 PM 79.1°F26.2°C 65.8°F18.8°C 49% 4.0 mph SE6.4 kmh SE 4.0 mph6.4 kmh 30.10 in1019.3 mb 0.00 in0.0 mm 0.00 in0.0 mm 0.02 in0.5 mm
06:21 PM 78.5°F25.8°C 66.5°F19.2°C 51% 4.4 mph SE7.1 kmh SE 4.4 mph7.1 kmh 30.10 in1019.3 mb 0.00 in0.0 mm 0.00 in0.0 mm 0.02 in0.5 mm
06:24 PM 78.1°F25.6°C 65.3°F18.5°C 50% 6.6 mph NNW10.6 kmh NNW 6.6 mph10.6 kmh 30.10 in1019.3 mb 0.00 in0.0 mm 0.00 in0.0 mm 0.02 in0.5 mm
06:30 PM 77.6°F25.3°C 65.7°F18.7°C 52% 2.4 mph SE3.9 kmh SE 2.4 mph3.9 kmh 30.11 in1019.6 mb 0.00 in0.0 mm 0.00 in0.0 mm 0.02 in0.5 mm
06:33 PM 77.5°F25.3°C 65.8°F18.8°C 51% 5.7 mph SE9.2 kmh SE 5.7 mph9.2 kmh 30.11 in1019.6 mb 0.00 in0.0 mm 0.00 in0.0 mm 0.02 in0.5 mm
06:36 PM 77.5°F25.3°C 65.7°F18.7°C 51% 3.2 mph ESE5.1 kmh ESE 3.2 mph5.1 kmh 30.10 in1019.3 mb 0.00 in0.0 mm 0.00 in0.0 mm 0.02 in0.5 mm
06:39 PM 77.2°F25.1°C 65.5°F18.6°C 52% 5.7 mph ESE9.2 kmh ESE 5.7 mph9.2 kmh 30.10 in1019.3 mb 0.00 in0.0 mm 0.00 in0.0 mm 0.02 in0.5 mm
06:42 PM 77.1°F25.1°C 65.6°F18.7°C 53% 3.6 mph SE5.8 kmh SE 3.7 mph6.0 kmh 30.11 in1019.6 mb 0.00 in0.0 mm 0.00 in0.0 mm 0.02 in0.5 mm
06:45 PM 77.2°F25.1°C 65.2°F18.4°C 52% 3.6 mph NNW5.8 kmh NNW 3.6 mph5.8 kmh 30.11 in1019.6 mb 0.00 in0.0 mm 0.00 in0.0 mm 0.02 in0.5 mm
06:48 PM 77.1°F25.1°C 65.3°F18.5°C 52% 4.4 mph SE7.1 kmh SE 4.5 mph7.2 kmh 30.10 in1019.3 mb 0.00 in0.0 mm 0.00 in0.0 mm 0.02 in0.5 mm
06:51 PM 77.2°F25.1°C 65.6°F18.7°C 52% 3.6 mph ESE5.8 kmh ESE 3.7 mph6.0 kmh 30.11 in1019.6 mb 0.00 in0.0 mm 0.00 in0.0 mm 0.02 in0.5 mm
06:54 PM 77.1°F25.1°C 66.1°F18.9°C 53% 2.0 mph NNW3.2 kmh NNW 2.0 mph3.2 kmh 30.11 in1019.6 mb 0.00 in0.0 mm 0.00 in0.0 mm 0.02 in0.5 mm
06:57 PM 77.5°F25.3°C 66.2°F19.0°C 54% 3.2 mph ESE5.1 kmh ESE 3.2 mph5.1 kmh 30.11 in1019.6 mb 0.00 in0.0 mm 0.00 in0.0 mm 0.02 in0.5 mm
07:00 PM 77.6°F25.3°C 66.1°F18.9°C 54% 4.0 mph SE6.4 kmh SE 4.1 mph6.6 kmh 30.11 in1019.6 mb 0.00 in0.0 mm 0.00 in0.0 mm 0.02 in0.5 mm
07:03 PM 77.6°F25.3°C 65.5°F18.6°C 53% 5.3 mph ESE8.5 kmh ESE 5.3 mph8.5 kmh 30.11 in1019.6 mb 0.00 in0.0 mm 0.00 in0.0 mm 0.02 in0.5 mm
07:06 PM 77.5°F25.3°C 66.0°F18.9°C 53% 2.8 mph SE4.5 kmh SE 2.9 mph4.7 kmh 30.11 in1019.6 mb 0.00 in0.0 mm 0.00 in0.0 mm 0.02 in0.5 mm
07:09 PM 77.1°F25.1°C 65.3°F18.5°C 53% 2.8 mph SE4.5 kmh SE 2.9 mph4.7 kmh 30.10 in1019.3 mb 0.00 in0.0 mm 0.00 in0.0 mm 0.02 in0.5 mm
07:12 PM 77.1°F25.1°C 65.3°F18.5°C 53% 3.2 mph SE5.1 kmh SE 3.3 mph5.3 kmh 30.11 in1019.6 mb 0.00 in0.0 mm 0.00 in0.0 mm 0.02 in0.5 mm
07:15 PM 77.0°F25.0°C 65.6°F18.7°C 52% 4.2 mph NNW6.8 kmh NNW 4.3 mph6.9 kmh 30.11 in1019.6 mb 0.00 in0.0 mm 0.00 in0.0 mm 0.02 in0.5 mm
07:18 PM 76.7°F24.8°C 66.2°F19.0°C 53% 3.2 mph SE5.1 kmh SE 3.3 mph5.3 kmh 30.11 in1019.6 mb 0.00 in0.0 mm 0.00 in0.0 mm 0.02 in0.5 mm
07:21 PM 76.0°F24.4°C 65.4°F18.6°C 53% 2.0 mph SE3.2 kmh SE 2.0 mph3.2 kmh 30.10 in1019.3 mb 0.00 in0.0 mm 0.00 in0.0 mm 0.02 in0.5 mm
07:24 PM 75.9°F24.4°C 65.0°F18.3°C 52% 4.2 mph SE6.8 kmh SE 4.2 mph6.8 kmh 30.11 in1019.6 mb 0.00 in0.0 mm 0.00 in0.0 mm 0.02 in0.5 mm
07:27 PM 75.4°F24.1°C 65.5°F18.6°C 53% 3.2 mph NNW5.1 kmh NNW 3.2 mph5.1 kmh 30.11 in1019.6 mb 0.00 in0.0 mm 0.00 in0.0 mm 0.02 in0.5 mm
07:30 PM 75.1°F23.9°C 65.0°F18.3°C 53% 7.9 mph ESE12.7 kmh ESE 8.0 mph12.9 kmh 30.11 in1019.6 mb 0.00 in0.0 mm 0.00 in0.0 mm 0.02 in0.5 mm
07:33 PM 74.8°F23.8°C 65.0°F18.3°C 54% 3.2 mph SE5.1 kmh SE 3.2 mph5.1 kmh 30.11 in1019.6 mb 0.00 in0.0 mm 0.00 in0.0 mm 0.02 in0.5 mm
07:36 PM 74.3°F23.5°C 65.7°F18.7°C 55% 4.4 mph NNW7.1 kmh NNW 4.5 mph7.2 kmh 30.11 in1019.6 mb 0.00 in0.0 mm 0.00 in0.0 mm 0.02 in0.5 mm
07:39 PM 74.2°F23.4°C 65.3°F18.5°C 55% 3.5 mph NNW5.6 kmh NNW 3.5 mph5.6 kmh 30.11 in1019.6 mb 0.00 in0.0 mm 0.00 in0.0 mm 0.02 in0.5 mm
07:42 PM 73.9°F23.3°C 65.0°F18.3°C 55% 3.6 mph SE5.8 kmh SE 3.6 mph5.8 kmh 30.11 in1019.6 mb 0.00 in0.0 mm 0.00 in0.0 mm 0.02 in0.5 mm
07:45 PM 73.5°F23.1°C 65.8°F18.8°C 56% 2.0 mph SE3.2 kmh SE 2.0 mph3.2 kmh 30.11 in1019.6 mb 0.00 in0.0 mm 0.00 in0.0 mm 0.02 in0.5 mm
07:48 PM 73.0°F22.8°C 66.1°F18.9°C 56% 3.6 mph NNW5.8 kmh NNW 3.6 mph5.8 kmh 30.12 in1020.0 mb 0.00 in0.0 mm 0.00 in0.0 mm 0.02 in0.5 mm
07:54 PM 72.6°F22.6°C 66.0°F18.9°C 56% 1.6 mph SE2.6 kmh SE 1.6 mph2.6 kmh 30.12 in1020.0 mb 0.00 in0.0 mm 0.00 in0.0 mm 0.02 in0.5 mm
07:57 PM 72.2°F22.3°C 65.8°F18.8°C 56% Calm Calm -- 30.12 in1020.0 mb 0.00 in0.0 mm 0.00 in0.0 mm 0.02 in0.5 mm
08:00 PM 71.8°F22.1°C 66.2°F19.0°C 57% 0.8 mph ESE1.3 kmh ESE 0.8 mph1.3 kmh 30.12 in1020.0 mb 0.00 in0.0 mm 0.00 in0.0 mm 0.02 in0.5 mm
08:03 PM 71.3°F21.8°C 65.9°F18.8°C 57% 4.4 mph ESE7.1 kmh ESE 4.4 mph7.1 kmh 30.12 in1020.0 mb 0.00 in0.0 mm 0.00 in0.0 mm 0.02 in0.5 mm
08:06 PM 71.4°F21.9°C 65.7°F18.7°C 57% 2.0 mph ESE3.2 kmh ESE 2.0 mph3.2 kmh 30.12 in1020.0 mb 0.00 in0.0 mm 0.00 in0.0 mm 0.02 in0.5 mm
08:09 PM 71.4°F21.9°C 64.4°F18.0°C 56% 3.0 mph ESE4.8 kmh ESE 3.0 mph4.8 kmh 30.12 in1020.0 mb 0.00 in0.0 mm 0.00 in0.0 mm 0.02 in0.5 mm
08:12 PM 70.8°F21.6°C 65.6°F18.7°C 57% 1.6 mph SE2.6 kmh SE 1.6 mph2.6 kmh 30.12 in1020.0 mb 0.00 in0.0 mm 0.00 in0.0 mm 0.02 in0.5 mm
08:15 PM 70.0°F21.1°C 65.0°F18.3°C 58% 2.4 mph ESE3.9 kmh ESE 2.4 mph3.9 kmh 30.12 in1020.0 mb 0.00 in0.0 mm 0.00 in0.0 mm 0.02 in0.5 mm
08:18 PM 70.3°F21.3°C 65.2°F18.4°C 58% 2.0 mph ESE3.2 kmh ESE 2.0 mph3.2 kmh 30.12 in1020.0 mb 0.00 in0.0 mm 0.00 in0.0 mm 0.02 in0.5 mm
08:21 PM 69.9°F21.1°C 65.1°F18.4°C 58% 3.4 mph NNW5.5 kmh NNW 3.7 mph6.0 kmh 30.12 in1020.0 mb 0.00 in0.0 mm 0.00 in0.0 mm 0.02 in0.5 mm
08:24 PM 69.8°F21.0°C 65.3°F18.5°C 58% 1.9 mph NNW3.1 kmh NNW 1.9 mph3.1 kmh 30.12 in1020.0 mb 0.00 in0.0 mm 0.00 in0.0 mm 0.02 in0.5 mm
08:27 PM 69.1°F20.6°C 65.1°F18.4°C 59% 2.3 mph NNW3.7 kmh NNW 2.3 mph3.7 kmh 30.12 in1020.0 mb 0.00 in0.0 mm 0.00 in0.0 mm 0.02 in0.5 mm
08:30 PM 68.9°F20.5°C 65.3°F18.5°C 59% 4.8 mph NNW7.7 kmh NNW 4.8 mph7.7 kmh 30.12 in1020.0 mb 0.00 in0.0 mm 0.00 in0.0 mm 0.02 in0.5 mm
08:33 PM 68.8°F20.4°C 64.6°F18.1°C 59% 3.6 mph ESE5.8 kmh ESE 3.6 mph5.8 kmh 30.12 in1020.0 mb 0.00 in0.0 mm 0.00 in0.0 mm 0.02 in0.5 mm
08:36 PM 68.8°F20.4°C 64.8°F18.2°C 59% 3.6 mph SE5.8 kmh SE 3.7 mph6.0 kmh 30.13 in1020.3 mb 0.00 in0.0 mm 0.00 in0.0 mm 0.02 in0.5 mm
08:39 PM 69.1°F20.6°C 64.4°F18.0°C 60% 1.6 mph SE2.6 kmh SE 1.6 mph2.6 kmh 30.13 in1020.3 mb 0.00 in0.0 mm 0.00 in0.0 mm 0.02 in0.5 mm
08:42 PM 68.7°F20.4°C 64.9°F18.3°C 60% 4.0 mph SE6.4 kmh SE 4.1 mph6.6 kmh 30.13 in1020.3 mb 0.00 in0.0 mm 0.00 in0.0 mm 0.02 in0.5 mm
08:45 PM 68.6°F20.3°C 64.4°F18.0°C 60% 5.7 mph NNW9.2 kmh NNW 5.7 mph9.2 kmh 30.13 in1020.3 mb 0.00 in0.0 mm 0.00 in0.0 mm 0.02 in0.5 mm
08:48 PM 69.1°F20.6°C 64.5°F18.1°C 60% 3.9 mph NNW6.3 kmh NNW 4.0 mph6.4 kmh 30.12 in1020.0 mb 0.00 in0.0 mm 0.00 in0.0 mm 0.02 in0.5 mm
08:51 PM 69.4°F20.8°C 63.6°F17.6°C 60% 5.2 mph SE8.4 kmh SE 5.2 mph8.4 kmh 30.12 in1020.0 mb 0.00 in0.0 mm 0.00 in0.0 mm 0.02 in0.5 mm
08:54 PM 68.9°F20.5°C 64.2°F17.9°C 60% 6.1 mph NNW9.8 kmh NNW 6.1 mph9.8 kmh 30.12 in1020.0 mb 0.00 in0.0 mm 0.00 in0.0 mm 0.02 in0.5 mm
08:57 PM 68.9°F20.5°C 64.4°F18.0°C 60% 8.5 mph ESE13.7 kmh ESE 8.6 mph13.8 kmh 30.12 in1020.0 mb 0.00 in0.0 mm 0.00 in0.0 mm 0.02 in0.5 mm
09:00 PM 68.8°F20.4°C 64.8°F18.2°C 60% 2.8 mph SE4.5 kmh SE 2.8 mph4.5 kmh 30.13 in1020.3 mb 0.00 in0.0 mm 0.00 in0.0 mm 0.02 in0.5 mm
09:03 PM 69.1°F20.6°C 64.7°F18.2°C 60% 3.9 mph NNW6.3 kmh NNW 3.9 mph6.3 kmh 30.13 in1020.3 mb 0.00 in0.0 mm 0.00 in0.0 mm 0.02 in0.5 mm
09:06 PM 68.9°F20.5°C 63.9°F17.7°C 61% 2.4 mph SE3.9 kmh SE 2.4 mph3.9 kmh 30.12 in1020.0 mb 0.00 in0.0 mm 0.00 in0.0 mm 0.02 in0.5 mm
09:09 PM 68.2°F20.1°C 63.6°F17.6°C 61% 3.2 mph NNW5.1 kmh NNW 3.3 mph5.3 kmh 30.13 in1020.3 mb 0.00 in0.0 mm 0.00 in0.0 mm 0.02 in0.5 mm
09:12 PM 68.1°F20.1°C 64.2°F17.9°C 61% 2.8 mph SE4.5 kmh SE 2.8 mph4.5 kmh 30.13 in1020.3 mb 0.00 in0.0 mm 0.00 in0.0 mm 0.02 in0.5 mm
09:15 PM 68.0°F20.0°C 63.9°F17.7°C 61% 3.1 mph NNW5.0 kmh NNW 3.3 mph5.3 kmh 30.13 in1020.3 mb 0.00 in0.0 mm 0.00 in0.0 mm 0.02 in0.5 mm
09:18 PM 67.7°F19.8°C 63.2°F17.3°C 60% 5.3 mph NNW8.5 kmh NNW 5.3 mph8.5 kmh 30.13 in1020.3 mb 0.00 in0.0 mm 0.00 in0.0 mm 0.02 in0.5 mm
09:21 PM 68.2°F20.1°C 63.3°F17.4°C 61% 3.2 mph SE5.1 kmh SE 3.2 mph5.1 kmh 30.13 in1020.3 mb 0.00 in0.0 mm 0.00 in0.0 mm 0.02 in0.5 mm
09:24 PM 67.2°F19.6°C 64.6°F18.1°C 62% 2.4 mph NNW3.9 kmh NNW 2.4 mph3.9 kmh 30.13 in1020.3 mb 0.00 in0.0 mm 0.00 in0.0 mm 0.02 in0.5 mm
09:27 PM 68.0°F20.0°C 64.2°F17.9°C 61% 5.5 mph SE8.9 kmh SE 5.6 mph9.0 kmh 30.14 in1020.7 mb 0.00 in0.0 mm 0.00 in0.0 mm 0.02 in0.5 mm
09:30 PM 67.9°F19.9°C 64.2°F17.9°C 61% 1.5 mph SE2.4 kmh SE 1.6 mph2.6 kmh 30.13 in1020.3 mb 0.00 in0.0 mm 0.00 in0.0 mm 0.02 in0.5 mm
09:33 PM 67.4°F19.7°C 63.6°F17.6°C 62% 4.2 mph SE6.8 kmh SE 4.5 mph7.2 kmh 30.13 in1020.3 mb 0.00 in0.0 mm 0.00 in0.0 mm 0.02 in0.5 mm
09:36 PM 67.1°F19.5°C 64.5°F18.1°C 62% 2.8 mph NNW4.5 kmh NNW 2.8 mph4.5 kmh 30.14 in1020.7 mb 0.00 in0.0 mm 0.00 in0.0 mm 0.02 in0.5 mm
09:39 PM 67.3°F19.6°C 63.9°F17.7°C 62% 2.4 mph SE3.9 kmh SE 2.4 mph3.9 kmh 30.14 in1020.7 mb 0.00 in0.0 mm 0.00 in0.0 mm 0.02 in0.5 mm
09:42 PM 66.7°F19.3°C 64.3°F17.9°C 62% 1.6 mph SE2.6 kmh SE 1.6 mph2.6 kmh 30.14 in1020.7 mb 0.00 in0.0 mm 0.00 in0.0 mm 0.02 in0.5 mm
09:45 PM 66.7°F19.3°C 63.8°F17.7°C 62% 5.2 mph ESE8.4 kmh ESE 5.3 mph8.5 kmh 30.14 in1020.7 mb 0.00 in0.0 mm 0.00 in0.0 mm 0.02 in0.5 mm
09:48 PM 66.1°F18.9°C 63.5°F17.5°C 62% 2.4 mph ESE3.9 kmh ESE 2.4 mph3.9 kmh 30.14 in1020.7 mb 0.00 in0.0 mm 0.00 in0.0 mm 0.02 in0.5 mm
09:51 PM 65.8°F18.8°C 63.1°F17.3°C 62% 2.0 mph SE3.2 kmh SE 2.0 mph3.2 kmh 30.14 in1020.7 mb 0.00 in0.0 mm 0.00 in0.0 mm 0.02 in0.5 mm
09:54 PM 65.6°F18.7°C 63.3°F17.4°C 63% 1.6 mph SE2.6 kmh SE 1.6 mph2.6 kmh 30.14 in1020.7 mb 0.00 in0.0 mm 0.00 in0.0 mm 0.02 in0.5 mm
09:57 PM 66.0°F18.9°C 63.2°F17.3°C 63% 2.0 mph NNW3.2 kmh NNW 2.0 mph3.2 kmh 30.14 in1020.7 mb 0.00 in0.0 mm 0.00 in0.0 mm 0.02 in0.5 mm
10:00 PM 65.4°F18.6°C 63.2°F17.3°C 63% 2.0 mph SE3.2 kmh SE 2.0 mph3.2 kmh 30.14 in1020.7 mb 0.00 in0.0 mm 0.00 in0.0 mm 0.02 in0.5 mm
10:03 PM 65.3°F18.5°C 63.8°F17.7°C 63% 2.4 mph NNW3.9 kmh NNW 2.4 mph3.9 kmh 30.14 in1020.7 mb 0.00 in0.0 mm 0.00 in0.0 mm 0.02 in0.5 mm
10:06 PM 65.3°F18.5°C 63.7°F17.6°C 63% 2.4 mph ESE3.9 kmh ESE 2.4 mph3.9 kmh 30.14 in1020.7 mb 0.00 in0.0 mm 0.00 in0.0 mm 0.02 in0.5 mm
10:09 PM 65.2°F18.4°C 63.4°F17.4°C 63% 2.8 mph ESE4.5 kmh ESE 2.8 mph4.5 kmh 30.14 in1020.7 mb 0.00 in0.0 mm 0.00 in0.0 mm 0.02 in0.5 mm
10:12 PM 64.9°F18.3°C 63.1°F17.3°C 63% 1.6 mph SE2.6 kmh SE 1.6 mph2.6 kmh 30.14 in1020.7 mb 0.00 in0.0 mm 0.00 in0.0 mm 0.02 in0.5 mm
10:15 PM 65.3°F18.5°C 62.9°F17.2°C 64% 3.6 mph E5.8 kmh E 3.7 mph6.0 kmh 30.15 in1021.0 mb 0.00 in0.0 mm 0.00 in0.0 mm 0.02 in0.5 mm
10:18 PM 64.9°F18.3°C 63.5°F17.5°C 63% 2.0 mph SE3.2 kmh SE 2.0 mph3.2 kmh 30.15 in1021.0 mb 0.00 in0.0 mm 0.00 in0.0 mm 0.02 in0.5 mm
10:21 PM 64.7°F18.2°C 63.1°F17.3°C 64% 1.2 mph ESE1.9 kmh ESE 1.2 mph1.9 kmh 30.15 in1021.0 mb 0.00 in0.0 mm 0.00 in0.0 mm 0.02 in0.5 mm
10:24 PM 65.1°F18.4°C 63.3°F17.4°C 64% 1.2 mph SE1.9 kmh SE 1.2 mph1.9 kmh 30.15 in1021.0 mb 0.00 in0.0 mm 0.00 in0.0 mm 0.02 in0.5 mm
10:27 PM 64.6°F18.1°C 63.3°F17.4°C 64% 2.6 mph NNW4.2 kmh NNW 2.8 mph4.5 kmh 30.15 in1021.0 mb 0.00 in0.0 mm 0.00 in0.0 mm 0.02 in0.5 mm
10:30 PM 64.4°F18.0°C 62.9°F17.2°C 64% 4.0 mph SE6.4 kmh SE 4.1 mph6.6 kmh 30.15 in1021.0 mb 0.00 in0.0 mm 0.00 in0.0 mm 0.02 in0.5 mm
10:33 PM 64.1°F17.8°C 62.6°F17.0°C 64% 3.1 mph ESE5.0 kmh ESE 3.1 mph5.0 kmh 30.15 in1021.0 mb 0.00 in0.0 mm 0.00 in0.0 mm 0.02 in0.5 mm
10:36 PM 64.1°F17.8°C 63.4°F17.4°C 65% 2.0 mph NNW3.2 kmh NNW 2.0 mph3.2 kmh 30.15 in1021.0 mb 0.00 in0.0 mm 0.00 in0.0 mm 0.02 in0.5 mm
10:39 PM 64.1°F17.8°C 62.5°F16.9°C 64% 1.6 mph SE2.6 kmh SE 1.6 mph2.6 kmh 30.15 in1021.0 mb 0.00 in0.0 mm 0.00 in0.0 mm 0.02 in0.5 mm
10:42 PM 64.2°F17.9°C 62.6°F17.0°C 65% 2.2 mph NNW3.5 kmh NNW 2.2 mph3.5 kmh 30.15 in1021.0 mb 0.00 in0.0 mm 0.00 in0.0 mm 0.02 in0.5 mm
10:45 PM 64.0°F17.8°C 62.7°F17.1°C 65% 0.4 mph E0.6 kmh E 0.4 mph0.6 kmh 30.15 in1021.0 mb 0.00 in0.0 mm 0.00 in0.0 mm 0.02 in0.5 mm
10:48 PM 64.1°F17.8°C 62.7°F17.1°C 65% Calm Calm -- 30.15 in1021.0 mb 0.00 in0.0 mm 0.00 in0.0 mm 0.02 in0.5 mm
10:51 PM 64.1°F17.8°C 63.0°F17.2°C 65% Calm Calm -- 30.15 in1021.0 mb 0.00 in0.0 mm 0.00 in0.0 mm 0.02 in0.5 mm
10:54 PM 63.7°F17.6°C 62.8°F17.1°C 65% Calm Calm -- 30.15 in1021.0 mb 0.00 in0.0 mm 0.00 in0.0 mm 0.02 in0.5 mm
10:57 PM 63.8°F17.7°C 62.5°F16.9°C 66% 1.2 mph SE1.9 kmh SE 1.2 mph1.9 kmh 30.15 in1021.0 mb 0.00 in0.0 mm 0.00 in0.0 mm 0.02 in0.5 mm
11:00 PM 63.8°F17.7°C 63.2°F17.3°C 66% Calm Calm -- 30.15 in1021.0 mb 0.00 in0.0 mm 0.00 in0.0 mm 0.00 in0.0 mm
11:03 PM 63.4°F17.4°C 62.9°F17.2°C 66% 0.4 mph ESE0.6 kmh ESE 0.4 mph0.6 kmh 30.15 in1021.0 mb 0.00 in0.0 mm 0.00 in0.0 mm 0.00 in0.0 mm
11:06 PM 63.6°F17.6°C 62.9°F17.2°C 66% 0.4 mph ESE0.6 kmh ESE 0.4 mph0.6 kmh 30.15 in1021.0 mb 0.00 in0.0 mm 0.00 in0.0 mm 0.00 in0.0 mm
11:09 PM 63.4°F17.4°C 62.8°F17.1°C 66% 0.4 mph SE0.6 kmh SE 0.4 mph0.6 kmh 30.15 in1021.0 mb 0.00 in0.0 mm 0.00 in0.0 mm 0.00 in0.0 mm
11:12 PM 63.4°F17.4°C 62.5°F16.9°C 66% Calm Calm -- 30.15 in1021.0 mb 0.00 in0.0 mm 0.00 in0.0 mm 0.00 in0.0 mm
11:15 PM 62.9°F17.2°C 62.5°F16.9°C 67% Calm Calm -- 30.15 in1021.0 mb 0.00 in0.0 mm 0.00 in0.0 mm 0.00 in0.0 mm
11:18 PM 63.3°F17.4°C 62.7°F17.1°C 66% Calm Calm -- 30.15 in1021.0 mb 0.00 in0.0 mm 0.00 in0.0 mm 0.00 in0.0 mm
11:21 PM 63.1°F17.3°C 62.7°F17.1°C 67% Calm Calm -- 30.15 in1021.0 mb 0.00 in0.0 mm 0.00 in0.0 mm 0.00 in0.0 mm
11:24 PM 63.1°F17.3°C 62.3°F16.8°C 67% 0.4 mph SE0.6 kmh SE 0.4 mph0.6 kmh 30.15 in1021.0 mb 0.00 in0.0 mm 0.00 in0.0 mm 0.00 in0.0 mm
11:27 PM 62.8°F17.1°C 62.3°F16.8°C 67% 0.8 mph SE1.3 kmh SE 0.8 mph1.3 kmh 30.16 in1021.3 mb 0.00 in0.0 mm 0.00 in0.0 mm 0.00 in0.0 mm
11:30 PM 62.7°F17.1°C 62.4°F16.9°C 67% Calm Calm -- 30.16 in1021.3 mb 0.00 in0.0 mm 0.00 in0.0 mm 0.00 in0.0 mm
11:33 PM 62.6°F17.0°C 62.2°F16.8°C 67% Calm Calm -- 30.16 in1021.3 mb 0.00 in0.0 mm 0.00 in0.0 mm 0.00 in0.0 mm
11:36 PM 63.1°F17.3°C 62.1°F16.7°C 67% 0.8 mph NNW1.3 kmh NNW 0.8 mph1.3 kmh 30.16 in1021.3 mb 0.00 in0.0 mm 0.00 in0.0 mm 0.00 in0.0 mm
11:39 PM 63.2°F17.3°C 62.1°F16.7°C 67% Calm Calm -- 30.16 in1021.3 mb 0.00 in0.0 mm 0.00 in0.0 mm 0.00 in0.0 mm
11:45 PM 62.8°F17.1°C 62.3°F16.8°C 68% 1.2 mph SSW1.9 kmh SSW 1.2 mph1.9 kmh 30.16 in1021.3 mb 0.00 in0.0 mm 0.00 in0.0 mm 0.00 in0.0 mm
11:48 PM 62.4°F16.9°C 62.0°F16.7°C 68% Calm Calm -- 30.16 in1021.3 mb 0.00 in0.0 mm 0.00 in0.0 mm 0.00 in0.0 mm
11:51 PM 62.4°F16.9°C 62.0°F16.7°C 68% 0.4 mph NNW0.6 kmh NNW 0.4 mph0.6 kmh 30.16 in1021.3 mb 0.00 in0.0 mm 0.00 in0.0 mm 0.00 in0.0 mm
11:54 PM 62.2°F16.8°C 62.2°F16.8°C 68% Calm Calm -- 30.16 in1021.3 mb 0.00 in0.0 mm 0.00 in0.0 mm 0.00 in0.0 mm
11:57 PM 61.8°F16.6°C 62.0°F16.7°C 68% Calm Calm -- 30.16 in1021.3 mb 0.00 in0.0 mm 0.00 in0.0 mm 0.00 in0.0 mm